<?xml version="1.0" encoding="UTF-8" standalone="no" ?>
<gpx xmlns="http://www.topografix.com/GPX/1/1" xmlns:xsi="http://www.w3.org/2001/XMLSchema-instance" xsi:schemaLocation="http://www.topografix.com/GPX/1/1 http://www.topografix.com/GPX/1/1/gpx.xsd" version="1.1" creator="VisuGPX - https://www.visugpx.com">
  <metadata>
    <name>München 6</name>
  </metadata>
  <trk>
    <name><![CDATA[München 6]]></name>
    <extensions>
      <line xmlns="http://www.topografix.com/GPX/gpx_style/0/2">
        <color>0000FF</color>
        <width>4</width>
      </line>
    </extensions>
    <trkseg>
      <trkpt lat="48.15963" lon="11.61994">
        <ele>521.526988</ele>
        <time>2021-08-12T15:34:53.000Z</time>
      </trkpt>
      <trkpt lat="48.1594" lon="11.62015">
        <ele>521.526988</ele>
        <time>2021-08-12T15:34:54.000Z</time>
      </trkpt>
      <trkpt lat="48.15954" lon="11.62036">
        <ele>521.526988</ele>
        <time>2021-08-12T15:35:00.000Z</time>
      </trkpt>
      <trkpt lat="48.15955" lon="11.62042">
        <ele>521.526988</ele>
        <time>2021-08-12T15:35:01.000Z</time>
      </trkpt>
      <trkpt lat="48.15955" lon="11.62058">
        <ele>521.526988</ele>
        <time>2021-08-12T15:35:05.000Z</time>
      </trkpt>
      <trkpt lat="48.15951" lon="11.62067">
        <ele>521.526988</ele>
        <time>2021-08-12T15:35:07.000Z</time>
      </trkpt>
      <trkpt lat="48.15946" lon="11.62077">
        <ele>521.526988</ele>
        <time>2021-08-12T15:35:10.000Z</time>
      </trkpt>
      <trkpt lat="48.15937" lon="11.6208">
        <ele>521.526988</ele>
        <time>2021-08-12T15:35:13.000Z</time>
      </trkpt>
      <trkpt lat="48.15936" lon="11.62076">
        <ele>521.526988</ele>
        <time>2021-08-12T15:35:14.000Z</time>
      </trkpt>
      <trkpt lat="48.1593" lon="11.62069">
        <ele>521.565654</ele>
        <time>2021-08-12T15:35:16.000Z</time>
      </trkpt>
      <trkpt lat="48.15924" lon="11.62064">
        <ele>521.602609</ele>
        <time>2021-08-12T15:35:18.000Z</time>
      </trkpt>
      <trkpt lat="48.15917" lon="11.6206">
        <ele>521.644963</ele>
        <time>2021-08-12T15:35:20.000Z</time>
      </trkpt>
      <trkpt lat="48.15908" lon="11.62056">
        <ele>521.694788</ele>
        <time>2021-08-12T15:35:22.000Z</time>
      </trkpt>
      <trkpt lat="48.15893" lon="11.62043">
        <ele>521.792508</ele>
        <time>2021-08-12T15:35:26.000Z</time>
      </trkpt>
      <trkpt lat="48.15889" lon="11.6204">
        <ele>521.817395</ele>
        <time>2021-08-12T15:35:27.000Z</time>
      </trkpt>
      <trkpt lat="48.15887" lon="11.62035">
        <ele>521.839837</ele>
        <time>2021-08-12T15:35:28.000Z</time>
      </trkpt>
      <trkpt lat="48.15862" lon="11.62007">
        <ele>522.011086</ele>
        <time>2021-08-12T15:35:35.000Z</time>
      </trkpt>
      <trkpt lat="48.15858" lon="11.62005">
        <ele>522.038791</ele>
        <time>2021-08-12T15:35:36.000Z</time>
      </trkpt>
      <trkpt lat="48.15842" lon="11.61998">
        <ele>522.13019</ele>
        <time>2021-08-12T15:35:39.000Z</time>
      </trkpt>
      <trkpt lat="48.15838" lon="11.61988">
        <ele>522.171422</ele>
        <time>2021-08-12T15:35:41.000Z</time>
      </trkpt>
      <trkpt lat="48.15837" lon="11.61979">
        <ele>522.204112</ele>
        <time>2021-08-12T15:35:43.000Z</time>
      </trkpt>
      <trkpt lat="48.15828" lon="11.61971">
        <ele>522.26288</ele>
        <time>2021-08-12T15:35:46.000Z</time>
      </trkpt>
      <trkpt lat="48.15825" lon="11.61968">
        <ele>522.285224</ele>
        <time>2021-08-12T15:35:47.000Z</time>
      </trkpt>
      <trkpt lat="48.15803" lon="11.61946">
        <ele>522.433516</ele>
        <time>2021-08-12T15:35:54.000Z</time>
      </trkpt>
      <trkpt lat="48.15793" lon="11.61936">
        <ele>522.497655</ele>
        <time>2021-08-12T15:35:57.000Z</time>
      </trkpt>
      <trkpt lat="48.15786" lon="11.6193">
        <ele>522.542147</ele>
        <time>2021-08-12T15:35:59.000Z</time>
      </trkpt>
      <trkpt lat="48.15781" lon="11.61924">
        <ele>522.576895</ele>
        <time>2021-08-12T15:36:01.000Z</time>
      </trkpt>
      <trkpt lat="48.15776" lon="11.61917">
        <ele>522.608824</ele>
        <time>2021-08-12T15:36:04.000Z</time>
      </trkpt>
      <trkpt lat="48.15775" lon="11.61915">
        <ele>522.616026</ele>
        <time>2021-08-12T15:36:05.000Z</time>
      </trkpt>
      <trkpt lat="48.1576" lon="11.61901">
        <ele>522.70515</ele>
        <time>2021-08-12T15:36:12.000Z</time>
      </trkpt>
      <trkpt lat="48.15744" lon="11.61888">
        <ele>522.796522</ele>
        <time>2021-08-12T15:36:17.000Z</time>
      </trkpt>
      <trkpt lat="48.15738" lon="11.61882">
        <ele>522.832895</ele>
        <time>2021-08-12T15:36:19.000Z</time>
      </trkpt>
      <trkpt lat="48.1573" lon="11.61872">
        <ele>522.883311</ele>
        <time>2021-08-12T15:36:22.000Z</time>
      </trkpt>
      <trkpt lat="48.15717" lon="11.61856">
        <ele>522.967791</ele>
        <time>2021-08-12T15:36:26.000Z</time>
      </trkpt>
      <trkpt lat="48.15708" lon="11.61846">
        <ele>523.02354</ele>
        <time>2021-08-12T15:36:29.000Z</time>
      </trkpt>
      <trkpt lat="48.15692" lon="11.61827">
        <ele>523.126583</ele>
        <time>2021-08-12T15:36:34.000Z</time>
      </trkpt>
      <trkpt lat="48.15691" lon="11.61824">
        <ele>523.137158</ele>
        <time>2021-08-12T15:36:35.000Z</time>
      </trkpt>
      <trkpt lat="48.15677" lon="11.61809">
        <ele>523.223638</ele>
        <time>2021-08-12T15:36:39.000Z</time>
      </trkpt>
      <trkpt lat="48.15671" lon="11.61802">
        <ele>523.259823</ele>
        <time>2021-08-12T15:36:41.000Z</time>
      </trkpt>
      <trkpt lat="48.15658" lon="11.61787">
        <ele>523.340968</ele>
        <time>2021-08-12T15:36:45.000Z</time>
      </trkpt>
      <trkpt lat="48.15638" lon="11.61769">
        <ele>523.460303</ele>
        <time>2021-08-12T15:36:50.000Z</time>
      </trkpt>
      <trkpt lat="48.1563" lon="11.61763">
        <ele>523.502987</ele>
        <time>2021-08-12T15:36:52.000Z</time>
      </trkpt>
      <trkpt lat="48.1561" lon="11.6174">
        <ele>523.630026</ele>
        <time>2021-08-12T15:36:58.000Z</time>
      </trkpt>
      <trkpt lat="48.15603" lon="11.61735">
        <ele>523.669371</ele>
        <time>2021-08-12T15:37:00.000Z</time>
      </trkpt>
      <trkpt lat="48.15586" lon="11.61718">
        <ele>523.772583</ele>
        <time>2021-08-12T15:37:05.000Z</time>
      </trkpt>
      <trkpt lat="48.15582" lon="11.61714">
        <ele>523.797725</ele>
        <time>2021-08-12T15:37:06.000Z</time>
      </trkpt>
      <trkpt lat="48.1556" lon="11.61694">
        <ele>523.926018</ele>
        <time>2021-08-12T15:37:12.000Z</time>
      </trkpt>
      <trkpt lat="48.15553" lon="11.61688">
        <ele>523.967665</ele>
        <time>2021-08-12T15:37:14.000Z</time>
      </trkpt>
      <trkpt lat="48.15549" lon="11.61684">
        <ele>523.989186</ele>
        <time>2021-08-12T15:37:15.000Z</time>
      </trkpt>
      <trkpt lat="48.15528" lon="11.61665">
        <ele>524.111808</ele>
        <time>2021-08-12T15:37:21.000Z</time>
      </trkpt>
      <trkpt lat="48.15525" lon="11.61662">
        <ele>524.129896</ele>
        <time>2021-08-12T15:37:22.000Z</time>
      </trkpt>
      <trkpt lat="48.15509" lon="11.61642">
        <ele>524.234386</ele>
        <time>2021-08-12T15:37:27.000Z</time>
      </trkpt>
      <trkpt lat="48.15501" lon="11.61634">
        <ele>524.282822</ele>
        <time>2021-08-12T15:37:29.000Z</time>
      </trkpt>
      <trkpt lat="48.15498" lon="11.6163">
        <ele>524.304696</ele>
        <time>2021-08-12T15:37:30.000Z</time>
      </trkpt>
      <trkpt lat="48.1549" lon="11.61622">
        <ele>524.351514</ele>
        <time>2021-08-12T15:37:32.000Z</time>
      </trkpt>
      <trkpt lat="48.15479" lon="11.61612">
        <ele>524.416035</ele>
        <time>2021-08-12T15:37:35.000Z</time>
      </trkpt>
      <trkpt lat="48.15468" lon="11.61601">
        <ele>524.482151</ele>
        <time>2021-08-12T15:37:38.000Z</time>
      </trkpt>
      <trkpt lat="48.15461" lon="11.61596">
        <ele>524.525641</ele>
        <time>2021-08-12T15:37:40.000Z</time>
      </trkpt>
      <trkpt lat="48.15457" lon="11.61593">
        <ele>524.546237</ele>
        <time>2021-08-12T15:37:41.000Z</time>
      </trkpt>
      <trkpt lat="48.1544" lon="11.61575">
        <ele>524.651483</ele>
        <time>2021-08-12T15:37:46.000Z</time>
      </trkpt>
      <trkpt lat="48.15425" lon="11.6156">
        <ele>524.744519</ele>
        <time>2021-08-12T15:37:50.000Z</time>
      </trkpt>
      <trkpt lat="48.15418" lon="11.61553">
        <ele>524.78805</ele>
        <time>2021-08-12T15:37:52.000Z</time>
      </trkpt>
      <trkpt lat="48.154" lon="11.61543">
        <ele>524.885296</ele>
        <time>2021-08-12T15:37:56.000Z</time>
      </trkpt>
      <trkpt lat="48.15392" lon="11.61538">
        <ele>524.926799</ele>
        <time>2021-08-12T15:37:58.000Z</time>
      </trkpt>
      <trkpt lat="48.15371" lon="11.61527">
        <ele>525.039806</ele>
        <time>2021-08-12T15:38:02.000Z</time>
      </trkpt>
      <trkpt lat="48.15364" lon="11.61521">
        <ele>525.079877</ele>
        <time>2021-08-12T15:38:04.000Z</time>
      </trkpt>
      <trkpt lat="48.15357" lon="11.61514">
        <ele>525.122608</ele>
        <time>2021-08-12T15:38:06.000Z</time>
      </trkpt>
      <trkpt lat="48.15349" lon="11.61507">
        <ele>525.172259</ele>
        <time>2021-08-12T15:38:08.000Z</time>
      </trkpt>
      <trkpt lat="48.15345" lon="11.61504">
        <ele>525.193621</ele>
        <time>2021-08-12T15:38:09.000Z</time>
      </trkpt>
      <trkpt lat="48.15337" lon="11.61493">
        <ele>525.233605</ele>
        <time>2021-08-12T15:38:12.000Z</time>
      </trkpt>
      <trkpt lat="48.15331" lon="11.61485">
        <ele>525.150922</ele>
        <time>2021-08-12T15:38:14.000Z</time>
      </trkpt>
      <trkpt lat="48.15327" lon="11.6148">
        <ele>525.102198</ele>
        <time>2021-08-12T15:38:15.000Z</time>
      </trkpt>
      <trkpt lat="48.15315" lon="11.61465">
        <ele>524.948234</ele>
        <time>2021-08-12T15:38:19.000Z</time>
      </trkpt>
      <trkpt lat="48.15306" lon="11.61451">
        <ele>524.826327</ele>
        <time>2021-08-12T15:38:22.000Z</time>
      </trkpt>
      <trkpt lat="48.1529" lon="11.61419">
        <ele>524.557041</ele>
        <time>2021-08-12T15:38:29.000Z</time>
      </trkpt>
      <trkpt lat="48.1529" lon="11.61413">
        <ele>524.520025</ele>
        <time>2021-08-12T15:38:30.000Z</time>
      </trkpt>
      <trkpt lat="48.15293" lon="11.61404">
        <ele>524.452741</ele>
        <time>2021-08-12T15:38:32.000Z</time>
      </trkpt>
      <trkpt lat="48.15307" lon="11.61383">
        <ele>524.260308</ele>
        <time>2021-08-12T15:38:37.000Z</time>
      </trkpt>
      <trkpt lat="48.1531" lon="11.61378">
        <ele>524.216538</ele>
        <time>2021-08-12T15:38:38.000Z</time>
      </trkpt>
      <trkpt lat="48.15317" lon="11.61369">
        <ele>524.125306</ele>
        <time>2021-08-12T15:38:40.000Z</time>
      </trkpt>
      <trkpt lat="48.15327" lon="11.61354">
        <ele>523.982149</ele>
        <time>2021-08-12T15:38:43.000Z</time>
      </trkpt>
      <trkpt lat="48.15335" lon="11.61343">
        <ele>523.884659</ele>
        <time>2021-08-12T15:38:45.000Z</time>
      </trkpt>
      <trkpt lat="48.15341" lon="11.61332">
        <ele>523.787556</ele>
        <time>2021-08-12T15:38:47.000Z</time>
      </trkpt>
      <trkpt lat="48.15348" lon="11.61321">
        <ele>523.687804</ele>
        <time>2021-08-12T15:38:49.000Z</time>
      </trkpt>
      <trkpt lat="48.15352" lon="11.61313">
        <ele>523.625914</ele>
        <time>2021-08-12T15:38:50.000Z</time>
      </trkpt>
      <trkpt lat="48.15357" lon="11.61304">
        <ele>523.5462</ele>
        <time>2021-08-12T15:38:52.000Z</time>
      </trkpt>
      <trkpt lat="48.1536" lon="11.61296">
        <ele>523.488941</ele>
        <time>2021-08-12T15:38:53.000Z</time>
      </trkpt>
      <trkpt lat="48.15373" lon="11.61271">
        <ele>522.857805</ele>
        <time>2021-08-12T15:38:56.000Z</time>
      </trkpt>
      <trkpt lat="48.15376" lon="11.61264">
        <ele>522.67032</ele>
        <time>2021-08-12T15:38:57.000Z</time>
      </trkpt>
      <trkpt lat="48.15381" lon="11.61255">
        <ele>522.438873</ele>
        <time>2021-08-12T15:38:58.000Z</time>
      </trkpt>
      <trkpt lat="48.15386" lon="11.61243">
        <ele>522.156686</ele>
        <time>2021-08-12T15:38:59.000Z</time>
      </trkpt>
      <trkpt lat="48.15398" lon="11.61214">
        <ele>521.456897</ele>
        <time>2021-08-12T15:39:02.000Z</time>
      </trkpt>
      <trkpt lat="48.15403" lon="11.61204">
        <ele>521.184757</ele>
        <time>2021-08-12T15:39:03.000Z</time>
      </trkpt>
      <trkpt lat="48.15412" lon="11.61183">
        <ele>520.680161</ele>
        <time>2021-08-12T15:39:05.000Z</time>
      </trkpt>
      <trkpt lat="48.15426" lon="11.61152">
        <ele>519.905476</ele>
        <time>2021-08-12T15:39:08.000Z</time>
      </trkpt>
      <trkpt lat="48.15433" lon="11.61138">
        <ele>519.556271</ele>
        <time>2021-08-12T15:39:09.000Z</time>
      </trkpt>
      <trkpt lat="48.15457" lon="11.6109">
        <ele>518.322237</ele>
        <time>2021-08-12T15:39:14.000Z</time>
      </trkpt>
      <trkpt lat="48.15461" lon="11.61079">
        <ele>518.060259</ele>
        <time>2021-08-12T15:39:15.000Z</time>
      </trkpt>
      <trkpt lat="48.15482" lon="11.61032">
        <ele>517.703992</ele>
        <time>2021-08-12T15:39:20.000Z</time>
      </trkpt>
      <trkpt lat="48.1551" lon="11.60975">
        <ele>517.376916</ele>
        <time>2021-08-12T15:39:27.000Z</time>
      </trkpt>
      <trkpt lat="48.1554" lon="11.60905">
        <ele>516.997839</ele>
        <time>2021-08-12T15:39:35.000Z</time>
      </trkpt>
      <trkpt lat="48.15561" lon="11.60854">
        <ele>516.720944</ele>
        <time>2021-08-12T15:39:41.000Z</time>
      </trkpt>
      <trkpt lat="48.15564" lon="11.60845">
        <ele>516.686907</ele>
        <time>2021-08-12T15:39:42.000Z</time>
      </trkpt>
      <trkpt lat="48.15575" lon="11.60818">
        <ele>516.623869</ele>
        <time>2021-08-12T15:39:45.000Z</time>
      </trkpt>
      <trkpt lat="48.15593" lon="11.60776">
        <ele>516.521975</ele>
        <time>2021-08-12T15:39:50.000Z</time>
      </trkpt>
      <trkpt lat="48.15605" lon="11.60753">
        <ele>516.464261</ele>
        <time>2021-08-12T15:39:53.000Z</time>
      </trkpt>
      <trkpt lat="48.15614" lon="11.60739">
        <ele>516.424892</ele>
        <time>2021-08-12T15:39:55.000Z</time>
      </trkpt>
      <trkpt lat="48.15628" lon="11.60701">
        <ele>516.337215</ele>
        <time>2021-08-12T15:40:00.000Z</time>
      </trkpt>
      <trkpt lat="48.15644" lon="11.60653">
        <ele>516.229701</ele>
        <time>2021-08-12T15:40:06.000Z</time>
      </trkpt>
      <trkpt lat="48.15646" lon="11.60645">
        <ele>516.211849</ele>
        <time>2021-08-12T15:40:07.000Z</time>
      </trkpt>
      <trkpt lat="48.15659" lon="11.60616">
        <ele>516.112023</ele>
        <time>2021-08-12T15:40:11.000Z</time>
      </trkpt>
      <trkpt lat="48.15667" lon="11.60595">
        <ele>515.925897</ele>
        <time>2021-08-12T15:40:14.000Z</time>
      </trkpt>
      <trkpt lat="48.15685" lon="11.60552">
        <ele>515.549289</ele>
        <time>2021-08-12T15:40:20.000Z</time>
      </trkpt>
      <trkpt lat="48.15708" lon="11.60494">
        <ele>515.048152</ele>
        <time>2021-08-12T15:40:28.000Z</time>
      </trkpt>
      <trkpt lat="48.15714" lon="11.6048">
        <ele>514.917537</ele>
        <time>2021-08-12T15:40:30.000Z</time>
      </trkpt>
      <trkpt lat="48.15723" lon="11.60458">
        <ele>514.725993</ele>
        <time>2021-08-12T15:40:33.000Z</time>
      </trkpt>
      <trkpt lat="48.15727" lon="11.60452">
        <ele>514.665993</ele>
        <time>2021-08-12T15:40:34.000Z</time>
      </trkpt>
      <trkpt lat="48.15735" lon="11.60443">
        <ele>514.556595</ele>
        <time>2021-08-12T15:40:36.000Z</time>
      </trkpt>
      <trkpt lat="48.15746" lon="11.60436">
        <ele>514.41388</ele>
        <time>2021-08-12T15:40:39.000Z</time>
      </trkpt>
      <trkpt lat="48.1575" lon="11.60435">
        <ele>514.368436</ele>
        <time>2021-08-12T15:40:40.000Z</time>
      </trkpt>
      <trkpt lat="48.15755" lon="11.60435">
        <ele>514.322103</ele>
        <time>2021-08-12T15:40:41.000Z</time>
      </trkpt>
      <trkpt lat="48.15764" lon="11.60435">
        <ele>514.215643</ele>
        <time>2021-08-12T15:40:43.000Z</time>
      </trkpt>
      <trkpt lat="48.15774" lon="11.60436">
        <ele>514.092985</ele>
        <time>2021-08-12T15:40:45.000Z</time>
      </trkpt>
      <trkpt lat="48.15797" lon="11.60438">
        <ele>513.797772</ele>
        <time>2021-08-12T15:40:49.000Z</time>
      </trkpt>
      <trkpt lat="48.15811" lon="11.60441">
        <ele>513.619819</ele>
        <time>2021-08-12T15:40:51.000Z</time>
      </trkpt>
      <trkpt lat="48.15824" lon="11.60442">
        <ele>513.45536</ele>
        <time>2021-08-12T15:40:53.000Z</time>
      </trkpt>
      <trkpt lat="48.15845" lon="11.60446">
        <ele>513.185786</ele>
        <time>2021-08-12T15:40:57.000Z</time>
      </trkpt>
      <trkpt lat="48.15865" lon="11.60444">
        <ele>512.92412</ele>
        <time>2021-08-12T15:41:02.000Z</time>
      </trkpt>
      <trkpt lat="48.15866" lon="11.60444">
        <ele>512.917715</ele>
        <time>2021-08-12T15:41:05.000Z</time>
      </trkpt>
      <trkpt lat="48.15866" lon="11.60444">
        <ele>512.917715</ele>
        <time>2021-08-12T15:41:08.000Z</time>
      </trkpt>
      <trkpt lat="48.15866" lon="11.60444">
        <ele>512.917715</ele>
        <time>2021-08-12T15:41:17.000Z</time>
      </trkpt>
      <trkpt lat="48.15866" lon="11.60444">
        <ele>512.917715</ele>
        <time>2021-08-12T15:41:21.000Z</time>
      </trkpt>
      <trkpt lat="48.15871" lon="11.60439">
        <ele>512.842737</ele>
        <time>2021-08-12T15:41:30.000Z</time>
      </trkpt>
      <trkpt lat="48.15873" lon="11.60437">
        <ele>512.802703</ele>
        <time>2021-08-12T15:41:31.000Z</time>
      </trkpt>
      <trkpt lat="48.15876" lon="11.60434">
        <ele>512.761129</ele>
        <time>2021-08-12T15:41:32.000Z</time>
      </trkpt>
      <trkpt lat="48.15877" lon="11.60425">
        <ele>512.681868</ele>
        <time>2021-08-12T15:41:34.000Z</time>
      </trkpt>
      <trkpt lat="48.15869" lon="11.60403">
        <ele>512.46429</ele>
        <time>2021-08-12T15:41:38.000Z</time>
      </trkpt>
      <trkpt lat="48.15867" lon="11.60397">
        <ele>512.404417</ele>
        <time>2021-08-12T15:41:39.000Z</time>
      </trkpt>
      <trkpt lat="48.15865" lon="11.6039">
        <ele>512.341935</ele>
        <time>2021-08-12T15:41:40.000Z</time>
      </trkpt>
      <trkpt lat="48.15857" lon="11.6038">
        <ele>512.217139</ele>
        <time>2021-08-12T15:41:42.000Z</time>
      </trkpt>
      <trkpt lat="48.15845" lon="11.60365">
        <ele>512.011593</ele>
        <time>2021-08-12T15:41:46.000Z</time>
      </trkpt>
      <trkpt lat="48.15829" lon="11.60339">
        <ele>511.862046</ele>
        <time>2021-08-12T15:41:52.000Z</time>
      </trkpt>
      <trkpt lat="48.15814" lon="11.60328">
        <ele>511.911169</ele>
        <time>2021-08-12T15:41:57.000Z</time>
      </trkpt>
      <trkpt lat="48.15798" lon="11.60325">
        <ele>511.957969</ele>
        <time>2021-08-12T15:42:02.000Z</time>
      </trkpt>
      <trkpt lat="48.15774" lon="11.60313">
        <ele>512.031515</ele>
        <time>2021-08-12T15:42:10.000Z</time>
      </trkpt>
      <trkpt lat="48.15764" lon="11.60291">
        <ele>512.084516</ele>
        <time>2021-08-12T15:42:14.000Z</time>
      </trkpt>
      <trkpt lat="48.15763" lon="11.60289">
        <ele>512.08913</ele>
        <time>2021-08-12T15:42:15.000Z</time>
      </trkpt>
      <trkpt lat="48.15761" lon="11.60287">
        <ele>512.096165</ele>
        <time>2021-08-12T15:42:17.000Z</time>
      </trkpt>
      <trkpt lat="48.1576" lon="11.60286">
        <ele>512.100614</ele>
        <time>2021-08-12T15:42:18.000Z</time>
      </trkpt>
      <trkpt lat="48.15758" lon="11.60285">
        <ele>512.105351</ele>
        <time>2021-08-12T15:42:21.000Z</time>
      </trkpt>
      <trkpt lat="48.15758" lon="11.60285">
        <ele>512.105351</ele>
        <time>2021-08-12T15:42:22.000Z</time>
      </trkpt>
      <trkpt lat="48.15759" lon="11.60285">
        <ele>512.107432</ele>
        <time>2021-08-12T15:42:28.000Z</time>
      </trkpt>
      <trkpt lat="48.15759" lon="11.60285">
        <ele>512.107432</ele>
        <time>2021-08-12T15:42:31.000Z</time>
      </trkpt>
      <trkpt lat="48.15759" lon="11.60285">
        <ele>512.107432</ele>
        <time>2021-08-12T15:42:36.000Z</time>
      </trkpt>
      <trkpt lat="48.15759" lon="11.60285">
        <ele>512.107432</ele>
        <time>2021-08-12T15:42:41.000Z</time>
      </trkpt>
      <trkpt lat="48.15759" lon="11.60285">
        <ele>512.107432</ele>
        <time>2021-08-12T15:42:42.000Z</time>
      </trkpt>
      <trkpt lat="48.15759" lon="11.60285">
        <ele>512.107432</ele>
        <time>2021-08-12T15:42:47.000Z</time>
      </trkpt>
      <trkpt lat="48.15759" lon="11.60285">
        <ele>512.107432</ele>
        <time>2021-08-12T15:42:50.000Z</time>
      </trkpt>
      <trkpt lat="48.15759" lon="11.60285">
        <ele>512.107432</ele>
        <time>2021-08-12T15:42:54.000Z</time>
      </trkpt>
      <trkpt lat="48.15758" lon="11.60285">
        <ele>512.109087</ele>
        <time>2021-08-12T15:43:05.000Z</time>
      </trkpt>
      <trkpt lat="48.1576" lon="11.60281">
        <ele>512.118001</ele>
        <time>2021-08-12T15:43:07.000Z</time>
      </trkpt>
      <trkpt lat="48.15761" lon="11.60276">
        <ele>512.128169</ele>
        <time>2021-08-12T15:43:08.000Z</time>
      </trkpt>
      <trkpt lat="48.15764" lon="11.6024">
        <ele>512.198654</ele>
        <time>2021-08-12T15:43:14.000Z</time>
      </trkpt>
      <trkpt lat="48.15769" lon="11.60211">
        <ele>512.256934</ele>
        <time>2021-08-12T15:43:19.000Z</time>
      </trkpt>
      <trkpt lat="48.15775" lon="11.6019">
        <ele>512.301019</ele>
        <time>2021-08-12T15:43:24.000Z</time>
      </trkpt>
      <trkpt lat="48.15775" lon="11.6017">
        <ele>512.339992</ele>
        <time>2021-08-12T15:43:30.000Z</time>
      </trkpt>
      <trkpt lat="48.15776" lon="11.60147">
        <ele>512.341438</ele>
        <time>2021-08-12T15:43:35.000Z</time>
      </trkpt>
      <trkpt lat="48.15773" lon="11.60126">
        <ele>512.311778</ele>
        <time>2021-08-12T15:43:39.000Z</time>
      </trkpt>
      <trkpt lat="48.15771" lon="11.60122">
        <ele>512.304124</ele>
        <time>2021-08-12T15:43:40.000Z</time>
      </trkpt>
      <trkpt lat="48.15757" lon="11.60099">
        <ele>512.261098</ele>
        <time>2021-08-12T15:43:45.000Z</time>
      </trkpt>
      <trkpt lat="48.15741" lon="11.60069">
        <ele>512.20665</ele>
        <time>2021-08-12T15:43:51.000Z</time>
      </trkpt>
      <trkpt lat="48.15726" lon="11.60041">
        <ele>512.158577</ele>
        <time>2021-08-12T15:43:56.000Z</time>
      </trkpt>
      <trkpt lat="48.15722" lon="11.60025">
        <ele>512.134458</ele>
        <time>2021-08-12T15:43:59.000Z</time>
      </trkpt>
      <trkpt lat="48.15718" lon="11.60011">
        <ele>512.113309</ele>
        <time>2021-08-12T15:44:02.000Z</time>
      </trkpt>
      <trkpt lat="48.15717" lon="11.60006">
        <ele>512.10565</ele>
        <time>2021-08-12T15:44:04.000Z</time>
      </trkpt>
      <trkpt lat="48.15711" lon="11.59989">
        <ele>512.079662</ele>
        <time>2021-08-12T15:44:10.000Z</time>
      </trkpt>
      <trkpt lat="48.15711" lon="11.59987">
        <ele>512.076271</ele>
        <time>2021-08-12T15:44:11.000Z</time>
      </trkpt>
      <trkpt lat="48.15712" lon="11.59985">
        <ele>512.073818</ele>
        <time>2021-08-12T15:44:13.000Z</time>
      </trkpt>
      <trkpt lat="48.1571" lon="11.59986">
        <ele>512.071084</ele>
        <time>2021-08-12T15:44:18.000Z</time>
      </trkpt>
      <trkpt lat="48.1571" lon="11.59986">
        <ele>512.071084</ele>
        <time>2021-08-12T15:44:21.000Z</time>
      </trkpt>
      <trkpt lat="48.1571" lon="11.59986">
        <ele>512.071084</ele>
        <time>2021-08-12T15:44:26.000Z</time>
      </trkpt>
      <trkpt lat="48.1571" lon="11.59986">
        <ele>512.071084</ele>
        <time>2021-08-12T15:44:47.000Z</time>
      </trkpt>
      <trkpt lat="48.15709" lon="11.59989">
        <ele>512.065294</ele>
        <time>2021-08-12T15:44:49.000Z</time>
      </trkpt>
      <trkpt lat="48.15708" lon="11.59992">
        <ele>512.061017</ele>
        <time>2021-08-12T15:44:50.000Z</time>
      </trkpt>
      <trkpt lat="48.15708" lon="11.59995">
        <ele>512.056668</ele>
        <time>2021-08-12T15:44:51.000Z</time>
      </trkpt>
      <trkpt lat="48.15715" lon="11.59999">
        <ele>512.041003</ele>
        <time>2021-08-12T15:44:54.000Z</time>
      </trkpt>
      <trkpt lat="48.15723" lon="11.59999">
        <ele>512.024556</ele>
        <time>2021-08-12T15:44:57.000Z</time>
      </trkpt>
      <trkpt lat="48.15734" lon="11.59996">
        <ele>512.000214</ele>
        <time>2021-08-12T15:45:00.000Z</time>
      </trkpt>
      <trkpt lat="48.15756" lon="11.59986">
        <ele>512.006589</ele>
        <time>2021-08-12T15:45:05.000Z</time>
      </trkpt>
      <trkpt lat="48.15769" lon="11.59983">
        <ele>512.025539</ele>
        <time>2021-08-12T15:45:08.000Z</time>
      </trkpt>
      <trkpt lat="48.15779" lon="11.59984">
        <ele>512.03907</ele>
        <time>2021-08-12T15:45:10.000Z</time>
      </trkpt>
      <trkpt lat="48.15783" lon="11.59985">
        <ele>512.0451</ele>
        <time>2021-08-12T15:45:11.000Z</time>
      </trkpt>
      <trkpt lat="48.15805" lon="11.59991">
        <ele>512.076399</ele>
        <time>2021-08-12T15:45:16.000Z</time>
      </trkpt>
      <trkpt lat="48.1582" lon="11.59991">
        <ele>512.098148</ele>
        <time>2021-08-12T15:45:19.000Z</time>
      </trkpt>
      <trkpt lat="48.15825" lon="11.5999">
        <ele>512.105413</ele>
        <time>2021-08-12T15:45:20.000Z</time>
      </trkpt>
      <trkpt lat="48.15839" lon="11.59986">
        <ele>512.126402</ele>
        <time>2021-08-12T15:45:23.000Z</time>
      </trkpt>
      <trkpt lat="48.1585" lon="11.59978">
        <ele>512.143165</ele>
        <time>2021-08-12T15:45:25.000Z</time>
      </trkpt>
      <trkpt lat="48.15864" lon="11.59971">
        <ele>512.164095</ele>
        <time>2021-08-12T15:45:28.000Z</time>
      </trkpt>
      <trkpt lat="48.1587" lon="11.59963">
        <ele>512.175742</ele>
        <time>2021-08-12T15:45:30.000Z</time>
      </trkpt>
      <trkpt lat="48.15874" lon="11.5996">
        <ele>512.18217</ele>
        <time>2021-08-12T15:45:31.000Z</time>
      </trkpt>
      <trkpt lat="48.15882" lon="11.59954">
        <ele>512.19498</ele>
        <time>2021-08-12T15:45:33.000Z</time>
      </trkpt>
      <trkpt lat="48.15889" lon="11.59946">
        <ele>512.207379</ele>
        <time>2021-08-12T15:45:35.000Z</time>
      </trkpt>
      <trkpt lat="48.15892" lon="11.59942">
        <ele>512.213382</ele>
        <time>2021-08-12T15:45:36.000Z</time>
      </trkpt>
      <trkpt lat="48.15904" lon="11.59923">
        <ele>512.237652</ele>
        <time>2021-08-12T15:45:40.000Z</time>
      </trkpt>
      <trkpt lat="48.15907" lon="11.59917">
        <ele>512.246429</ele>
        <time>2021-08-12T15:45:41.000Z</time>
      </trkpt>
      <trkpt lat="48.15908" lon="11.59913">
        <ele>512.252424</ele>
        <time>2021-08-12T15:45:42.000Z</time>
      </trkpt>
      <trkpt lat="48.15912" lon="11.59892">
        <ele>512.280369</ele>
        <time>2021-08-12T15:45:46.000Z</time>
      </trkpt>
      <trkpt lat="48.15917" lon="11.59875">
        <ele>512.305744</ele>
        <time>2021-08-12T15:45:49.000Z</time>
      </trkpt>
      <trkpt lat="48.1593" lon="11.59847">
        <ele>512.349424</ele>
        <time>2021-08-12T15:45:54.000Z</time>
      </trkpt>
      <trkpt lat="48.15936" lon="11.59828">
        <ele>512.376491</ele>
        <time>2021-08-12T15:45:59.000Z</time>
      </trkpt>
      <trkpt lat="48.15942" lon="11.59816">
        <ele>512.397389</ele>
        <time>2021-08-12T15:46:05.000Z</time>
      </trkpt>
      <trkpt lat="48.15947" lon="11.59807">
        <ele>512.412559</ele>
        <time>2021-08-12T15:46:11.000Z</time>
      </trkpt>
      <trkpt lat="48.15948" lon="11.59807">
        <ele>512.41387</ele>
        <time>2021-08-12T15:46:13.000Z</time>
      </trkpt>
      <trkpt lat="48.15948" lon="11.59807">
        <ele>512.414264</ele>
        <time>2021-08-12T15:46:15.000Z</time>
      </trkpt>
      <trkpt lat="48.15948" lon="11.59807">
        <ele>512.414264</ele>
        <time>2021-08-12T15:46:23.000Z</time>
      </trkpt>
      <trkpt lat="48.15948" lon="11.59807">
        <ele>512.414264</ele>
        <time>2021-08-12T15:46:24.000Z</time>
      </trkpt>
      <trkpt lat="48.15948" lon="11.59807">
        <ele>512.414264</ele>
        <time>2021-08-12T15:46:28.000Z</time>
      </trkpt>
      <trkpt lat="48.15948" lon="11.59807">
        <ele>512.414264</ele>
        <time>2021-08-12T15:46:30.000Z</time>
      </trkpt>
      <trkpt lat="48.15948" lon="11.59806">
        <ele>512.414592</ele>
        <time>2021-08-12T15:46:31.000Z</time>
      </trkpt>
      <trkpt lat="48.15944" lon="11.59797">
        <ele>512.428891</ele>
        <time>2021-08-12T15:46:34.000Z</time>
      </trkpt>
      <trkpt lat="48.15934" lon="11.59783">
        <ele>512.456254</ele>
        <time>2021-08-12T15:46:39.000Z</time>
      </trkpt>
      <trkpt lat="48.15915" lon="11.59771">
        <ele>512.49696</ele>
        <time>2021-08-12T15:46:45.000Z</time>
      </trkpt>
      <trkpt lat="48.159" lon="11.59756">
        <ele>512.531138</ele>
        <time>2021-08-12T15:46:50.000Z</time>
      </trkpt>
      <trkpt lat="48.1589" lon="11.59738">
        <ele>512.561973</ele>
        <time>2021-08-12T15:46:55.000Z</time>
      </trkpt>
      <trkpt lat="48.15886" lon="11.59727">
        <ele>512.577598</ele>
        <time>2021-08-12T15:46:57.000Z</time>
      </trkpt>
      <trkpt lat="48.15874" lon="11.59705">
        <ele>512.642901</ele>
        <time>2021-08-12T15:47:03.000Z</time>
      </trkpt>
      <trkpt lat="48.1587" lon="11.59686">
        <ele>512.699228</ele>
        <time>2021-08-12T15:47:07.000Z</time>
      </trkpt>
      <trkpt lat="48.15865" lon="11.59677">
        <ele>512.730773</ele>
        <time>2021-08-12T15:47:09.000Z</time>
      </trkpt>
      <trkpt lat="48.15848" lon="11.59652">
        <ele>512.835451</ele>
        <time>2021-08-12T15:47:16.000Z</time>
      </trkpt>
      <trkpt lat="48.15845" lon="11.59648">
        <ele>512.851102</ele>
        <time>2021-08-12T15:47:17.000Z</time>
      </trkpt>
      <trkpt lat="48.1583" lon="11.59635">
        <ele>512.929275</ele>
        <time>2021-08-12T15:47:22.000Z</time>
      </trkpt>
      <trkpt lat="48.15811" lon="11.59628">
        <ele>513.013601</ele>
        <time>2021-08-12T15:47:28.000Z</time>
      </trkpt>
      <trkpt lat="48.15808" lon="11.59628">
        <ele>513.026853</ele>
        <time>2021-08-12T15:47:29.000Z</time>
      </trkpt>
      <trkpt lat="48.15787" lon="11.59628">
        <ele>513.114361</ele>
        <time>2021-08-12T15:47:36.000Z</time>
      </trkpt>
      <trkpt lat="48.15766" lon="11.59624">
        <ele>513.207306</ele>
        <time>2021-08-12T15:47:43.000Z</time>
      </trkpt>
      <trkpt lat="48.15745" lon="11.59626">
        <ele>513.297505</ele>
        <time>2021-08-12T15:47:50.000Z</time>
      </trkpt>
      <trkpt lat="48.15713" lon="11.59629">
        <ele>513.380515</ele>
        <time>2021-08-12T15:47:59.000Z</time>
      </trkpt>
      <trkpt lat="48.15706" lon="11.5963">
        <ele>513.384097</ele>
        <time>2021-08-12T15:48:01.000Z</time>
      </trkpt>
      <trkpt lat="48.15685" lon="11.59638">
        <ele>513.394042</ele>
        <time>2021-08-12T15:48:07.000Z</time>
      </trkpt>
      <trkpt lat="48.15676" lon="11.59641">
        <ele>513.398446</ele>
        <time>2021-08-12T15:48:11.000Z</time>
      </trkpt>
      <trkpt lat="48.15671" lon="11.59639">
        <ele>513.400876</ele>
        <time>2021-08-12T15:48:13.000Z</time>
      </trkpt>
      <trkpt lat="48.15671" lon="11.59639">
        <ele>513.401069</ele>
        <time>2021-08-12T15:48:15.000Z</time>
      </trkpt>
      <trkpt lat="48.15671" lon="11.59639">
        <ele>513.401069</ele>
        <time>2021-08-12T15:48:23.000Z</time>
      </trkpt>
      <trkpt lat="48.15671" lon="11.59639">
        <ele>513.401069</ele>
        <time>2021-08-12T15:48:24.000Z</time>
      </trkpt>
      <trkpt lat="48.15671" lon="11.59639">
        <ele>513.401069</ele>
        <time>2021-08-12T15:48:32.000Z</time>
      </trkpt>
      <trkpt lat="48.15671" lon="11.59639">
        <ele>513.401069</ele>
        <time>2021-08-12T15:48:38.000Z</time>
      </trkpt>
      <trkpt lat="48.15671" lon="11.59639">
        <ele>513.401069</ele>
        <time>2021-08-12T15:48:40.000Z</time>
      </trkpt>
      <trkpt lat="48.15671" lon="11.59639">
        <ele>513.401069</ele>
        <time>2021-08-12T15:48:49.000Z</time>
      </trkpt>
      <trkpt lat="48.1567" lon="11.5964">
        <ele>513.401315</ele>
        <time>2021-08-12T15:49:08.000Z</time>
      </trkpt>
      <trkpt lat="48.1567" lon="11.5964">
        <ele>513.401372</ele>
        <time>2021-08-12T15:49:16.000Z</time>
      </trkpt>
      <trkpt lat="48.15666" lon="11.5964">
        <ele>513.403475</ele>
        <time>2021-08-12T15:49:19.000Z</time>
      </trkpt>
      <trkpt lat="48.15664" lon="11.59639">
        <ele>513.404481</ele>
        <time>2021-08-12T15:49:20.000Z</time>
      </trkpt>
      <trkpt lat="48.15656" lon="11.59626">
        <ele>513.410034</ele>
        <time>2021-08-12T15:49:25.000Z</time>
      </trkpt>
      <trkpt lat="48.15646" lon="11.59611">
        <ele>513.416603</ele>
        <time>2021-08-12T15:49:29.000Z</time>
      </trkpt>
      <trkpt lat="48.1563" lon="11.59594">
        <ele>513.426213</ele>
        <time>2021-08-12T15:49:35.000Z</time>
      </trkpt>
      <trkpt lat="48.15617" lon="11.59592">
        <ele>513.432366</ele>
        <time>2021-08-12T15:49:40.000Z</time>
      </trkpt>
      <trkpt lat="48.15597" lon="11.59581">
        <ele>513.442737</ele>
        <time>2021-08-12T15:49:46.000Z</time>
      </trkpt>
      <trkpt lat="48.1558" lon="11.59569">
        <ele>513.451682</ele>
        <time>2021-08-12T15:49:51.000Z</time>
      </trkpt>
      <trkpt lat="48.15573" lon="11.59564">
        <ele>513.454985</ele>
        <time>2021-08-12T15:49:53.000Z</time>
      </trkpt>
      <trkpt lat="48.15565" lon="11.59558">
        <ele>513.462648</ele>
        <time>2021-08-12T15:49:56.000Z</time>
      </trkpt>
      <trkpt lat="48.1556" lon="11.59553">
        <ele>513.488862</ele>
        <time>2021-08-12T15:49:58.000Z</time>
      </trkpt>
      <trkpt lat="48.15546" lon="11.59539">
        <ele>513.560579</ele>
        <time>2021-08-12T15:50:02.000Z</time>
      </trkpt>
      <trkpt lat="48.15531" lon="11.59516">
        <ele>513.653273</ele>
        <time>2021-08-12T15:50:07.000Z</time>
      </trkpt>
      <trkpt lat="48.1551" lon="11.59498">
        <ele>513.754615</ele>
        <time>2021-08-12T15:50:13.000Z</time>
      </trkpt>
      <trkpt lat="48.15507" lon="11.59495">
        <ele>513.7704</ele>
        <time>2021-08-12T15:50:14.000Z</time>
      </trkpt>
      <trkpt lat="48.15486" lon="11.59468">
        <ele>513.891161</ele>
        <time>2021-08-12T15:50:21.000Z</time>
      </trkpt>
      <trkpt lat="48.15472" lon="11.59453">
        <ele>513.963727</ele>
        <time>2021-08-12T15:50:25.000Z</time>
      </trkpt>
      <trkpt lat="48.15469" lon="11.59449">
        <ele>513.980566</ele>
        <time>2021-08-12T15:50:26.000Z</time>
      </trkpt>
      <trkpt lat="48.15456" lon="11.59421">
        <ele>514.077445</ele>
        <time>2021-08-12T15:50:31.000Z</time>
      </trkpt>
      <trkpt lat="48.15451" lon="11.59417">
        <ele>514.101354</ele>
        <time>2021-08-12T15:50:35.000Z</time>
      </trkpt>
      <trkpt lat="48.1545" lon="11.59417">
        <ele>514.107108</ele>
        <time>2021-08-12T15:50:42.000Z</time>
      </trkpt>
      <trkpt lat="48.15451" lon="11.59418">
        <ele>514.111231</ele>
        <time>2021-08-12T15:50:46.000Z</time>
      </trkpt>
      <trkpt lat="48.15451" lon="11.59418">
        <ele>514.111231</ele>
        <time>2021-08-12T15:50:47.000Z</time>
      </trkpt>
      <trkpt lat="48.15451" lon="11.59418">
        <ele>514.111231</ele>
        <time>2021-08-12T15:51:02.000Z</time>
      </trkpt>
      <trkpt lat="48.15448" lon="11.59415">
        <ele>514.124685</ele>
        <time>2021-08-12T15:51:04.000Z</time>
      </trkpt>
      <trkpt lat="48.15443" lon="11.59411">
        <ele>514.149873</ele>
        <time>2021-08-12T15:51:06.000Z</time>
      </trkpt>
      <trkpt lat="48.1543" lon="11.59403">
        <ele>514.209615</ele>
        <time>2021-08-12T15:51:11.000Z</time>
      </trkpt>
      <trkpt lat="48.15415" lon="11.59396">
        <ele>514.240068</ele>
        <time>2021-08-12T15:51:16.000Z</time>
      </trkpt>
      <trkpt lat="48.1539" lon="11.59382">
        <ele>514.262678</ele>
        <time>2021-08-12T15:51:23.000Z</time>
      </trkpt>
      <trkpt lat="48.15369" lon="11.59372">
        <ele>514.281234</ele>
        <time>2021-08-12T15:51:28.000Z</time>
      </trkpt>
      <trkpt lat="48.15336" lon="11.59353">
        <ele>514.311658</ele>
        <time>2021-08-12T15:51:36.000Z</time>
      </trkpt>
      <trkpt lat="48.15334" lon="11.5935">
        <ele>514.314446</ele>
        <time>2021-08-12T15:51:37.000Z</time>
      </trkpt>
      <trkpt lat="48.15326" lon="11.59342">
        <ele>514.322609</ele>
        <time>2021-08-12T15:51:41.000Z</time>
      </trkpt>
      <trkpt lat="48.15318" lon="11.59337">
        <ele>514.329366</ele>
        <time>2021-08-12T15:51:45.000Z</time>
      </trkpt>
      <trkpt lat="48.15314" lon="11.59333">
        <ele>514.33411</ele>
        <time>2021-08-12T15:51:47.000Z</time>
      </trkpt>
      <trkpt lat="48.15311" lon="11.59331">
        <ele>514.336843</ele>
        <time>2021-08-12T15:51:49.000Z</time>
      </trkpt>
      <trkpt lat="48.15306" lon="11.59333">
        <ele>514.340872</ele>
        <time>2021-08-12T15:51:51.000Z</time>
      </trkpt>
      <trkpt lat="48.15287" lon="11.59338">
        <ele>514.35811</ele>
        <time>2021-08-12T15:51:56.000Z</time>
      </trkpt>
      <trkpt lat="48.1527" lon="11.59342">
        <ele>514.372514</ele>
        <time>2021-08-12T15:52:01.000Z</time>
      </trkpt>
      <trkpt lat="48.15259" lon="11.59335">
        <ele>514.383039</ele>
        <time>2021-08-12T15:52:05.000Z</time>
      </trkpt>
      <trkpt lat="48.15255" lon="11.59315">
        <ele>514.375356</ele>
        <time>2021-08-12T15:52:10.000Z</time>
      </trkpt>
      <trkpt lat="48.15251" lon="11.59296">
        <ele>514.365942</ele>
        <time>2021-08-12T15:52:15.000Z</time>
      </trkpt>
      <trkpt lat="48.1525" lon="11.59288">
        <ele>514.361868</ele>
        <time>2021-08-12T15:52:19.000Z</time>
      </trkpt>
      <trkpt lat="48.1525" lon="11.59287">
        <ele>514.361239</ele>
        <time>2021-08-12T15:52:20.000Z</time>
      </trkpt>
      <trkpt lat="48.1525" lon="11.59286">
        <ele>514.360958</ele>
        <time>2021-08-12T15:52:26.000Z</time>
      </trkpt>
      <trkpt lat="48.1525" lon="11.59286">
        <ele>514.360887</ele>
        <time>2021-08-12T15:52:36.000Z</time>
      </trkpt>
      <trkpt lat="48.1525" lon="11.59286">
        <ele>514.360887</ele>
        <time>2021-08-12T15:52:37.000Z</time>
      </trkpt>
      <trkpt lat="48.1525" lon="11.59286">
        <ele>514.360887</ele>
        <time>2021-08-12T15:52:46.000Z</time>
      </trkpt>
      <trkpt lat="48.15251" lon="11.59286">
        <ele>514.360676</ele>
        <time>2021-08-12T15:52:53.000Z</time>
      </trkpt>
      <trkpt lat="48.15251" lon="11.59286">
        <ele>514.360676</ele>
        <time>2021-08-12T15:52:57.000Z</time>
      </trkpt>
      <trkpt lat="48.15251" lon="11.59286">
        <ele>514.360676</ele>
        <time>2021-08-12T15:53:00.000Z</time>
      </trkpt>
      <trkpt lat="48.15251" lon="11.59286">
        <ele>514.360676</ele>
        <time>2021-08-12T15:53:29.000Z</time>
      </trkpt>
      <trkpt lat="48.15251" lon="11.59286">
        <ele>514.360476</ele>
        <time>2021-08-12T15:53:32.000Z</time>
      </trkpt>
      <trkpt lat="48.15249" lon="11.59279">
        <ele>514.357158</ele>
        <time>2021-08-12T15:53:35.000Z</time>
      </trkpt>
      <trkpt lat="48.15248" lon="11.59274">
        <ele>514.354682</ele>
        <time>2021-08-12T15:53:37.000Z</time>
      </trkpt>
      <trkpt lat="48.15246" lon="11.59269">
        <ele>514.351852</ele>
        <time>2021-08-12T15:53:39.000Z</time>
      </trkpt>
      <trkpt lat="48.15246" lon="11.59266">
        <ele>514.350723</ele>
        <time>2021-08-12T15:53:40.000Z</time>
      </trkpt>
      <trkpt lat="48.15247" lon="11.59259">
        <ele>514.347207</ele>
        <time>2021-08-12T15:53:44.000Z</time>
      </trkpt>
      <trkpt lat="48.15247" lon="11.59255">
        <ele>514.345505</ele>
        <time>2021-08-12T15:53:46.000Z</time>
      </trkpt>
      <trkpt lat="48.15247" lon="11.59253">
        <ele>514.344377</ele>
        <time>2021-08-12T15:53:47.000Z</time>
      </trkpt>
      <trkpt lat="48.15247" lon="11.59248">
        <ele>514.342311</ele>
        <time>2021-08-12T15:53:49.000Z</time>
      </trkpt>
      <trkpt lat="48.15247" lon="11.59243">
        <ele>514.339707</ele>
        <time>2021-08-12T15:53:51.000Z</time>
      </trkpt>
      <trkpt lat="48.15245" lon="11.59225">
        <ele>514.331268</ele>
        <time>2021-08-12T15:53:56.000Z</time>
      </trkpt>
      <trkpt lat="48.15247" lon="11.59208">
        <ele>514.323389</ele>
        <time>2021-08-12T15:54:01.000Z</time>
      </trkpt>
      <trkpt lat="48.15247" lon="11.59205">
        <ele>514.321873</ele>
        <time>2021-08-12T15:54:02.000Z</time>
      </trkpt>
      <trkpt lat="48.15248" lon="11.59201">
        <ele>514.319705</ele>
        <time>2021-08-12T15:54:04.000Z</time>
      </trkpt>
      <trkpt lat="48.15248" lon="11.59199">
        <ele>514.319124</ele>
        <time>2021-08-12T15:54:05.000Z</time>
      </trkpt>
      <trkpt lat="48.15253" lon="11.5919">
        <ele>514.313719</ele>
        <time>2021-08-12T15:54:10.000Z</time>
      </trkpt>
      <trkpt lat="48.15255" lon="11.59189">
        <ele>514.312271</ele>
        <time>2021-08-12T15:54:11.000Z</time>
      </trkpt>
      <trkpt lat="48.15264" lon="11.59188">
        <ele>514.305297</ele>
        <time>2021-08-12T15:54:15.000Z</time>
      </trkpt>
      <trkpt lat="48.15273" lon="11.59177">
        <ele>514.297131</ele>
        <time>2021-08-12T15:54:20.000Z</time>
      </trkpt>
      <trkpt lat="48.15283" lon="11.59157">
        <ele>514.285736</ele>
        <time>2021-08-12T15:54:25.000Z</time>
      </trkpt>
      <trkpt lat="48.15285" lon="11.59153">
        <ele>514.28315</ele>
        <time>2021-08-12T15:54:26.000Z</time>
      </trkpt>
      <trkpt lat="48.1529" lon="11.59144">
        <ele>514.277798</ele>
        <time>2021-08-12T15:54:28.000Z</time>
      </trkpt>
      <trkpt lat="48.15297" lon="11.59131">
        <ele>514.26975</ele>
        <time>2021-08-12T15:54:31.000Z</time>
      </trkpt>
      <trkpt lat="48.15309" lon="11.591">
        <ele>514.26946</ele>
        <time>2021-08-12T15:54:38.000Z</time>
      </trkpt>
      <trkpt lat="48.15312" lon="11.59079">
        <ele>514.294477</ele>
        <time>2021-08-12T15:54:42.000Z</time>
      </trkpt>
      <trkpt lat="48.15313" lon="11.59068">
        <ele>514.307099</ele>
        <time>2021-08-12T15:54:44.000Z</time>
      </trkpt>
      <trkpt lat="48.15311" lon="11.59049">
        <ele>514.328675</ele>
        <time>2021-08-12T15:54:48.000Z</time>
      </trkpt>
      <trkpt lat="48.1531" lon="11.59024">
        <ele>514.357978</ele>
        <time>2021-08-12T15:54:54.000Z</time>
      </trkpt>
      <trkpt lat="48.15314" lon="11.59012">
        <ele>514.373246</ele>
        <time>2021-08-12T15:54:58.000Z</time>
      </trkpt>
      <trkpt lat="48.15315" lon="11.59011">
        <ele>514.376247</ele>
        <time>2021-08-12T15:54:59.000Z</time>
      </trkpt>
      <trkpt lat="48.15319" lon="11.59005">
        <ele>514.3856</ele>
        <time>2021-08-12T15:55:04.000Z</time>
      </trkpt>
      <trkpt lat="48.1532" lon="11.59005">
        <ele>514.387057</ele>
        <time>2021-08-12T15:55:05.000Z</time>
      </trkpt>
      <trkpt lat="48.1532" lon="11.59004">
        <ele>514.387547</ele>
        <time>2021-08-12T15:55:11.000Z</time>
      </trkpt>
      <trkpt lat="48.15318" lon="11.59002">
        <ele>514.392743</ele>
        <time>2021-08-12T15:55:39.000Z</time>
      </trkpt>
      <trkpt lat="48.15314" lon="11.58996">
        <ele>514.401951</ele>
        <time>2021-08-12T15:55:41.000Z</time>
      </trkpt>
      <trkpt lat="48.15301" lon="11.58969">
        <ele>514.440345</ele>
        <time>2021-08-12T15:55:48.000Z</time>
      </trkpt>
      <trkpt lat="48.15299" lon="11.5896">
        <ele>514.451305</ele>
        <time>2021-08-12T15:55:51.000Z</time>
      </trkpt>
      <trkpt lat="48.15297" lon="11.58956">
        <ele>514.456608</ele>
        <time>2021-08-12T15:55:53.000Z</time>
      </trkpt>
      <trkpt lat="48.15295" lon="11.5895">
        <ele>514.464073</ele>
        <time>2021-08-12T15:55:56.000Z</time>
      </trkpt>
      <trkpt lat="48.15291" lon="11.58946">
        <ele>514.472398</ele>
        <time>2021-08-12T15:55:59.000Z</time>
      </trkpt>
      <trkpt lat="48.15287" lon="11.58943">
        <ele>514.481039</ele>
        <time>2021-08-12T15:56:02.000Z</time>
      </trkpt>
      <trkpt lat="48.15284" lon="11.5894">
        <ele>514.487624</ele>
        <time>2021-08-12T15:56:04.000Z</time>
      </trkpt>
      <trkpt lat="48.15281" lon="11.58933">
        <ele>514.497144</ele>
        <time>2021-08-12T15:56:06.000Z</time>
      </trkpt>
      <trkpt lat="48.15277" lon="11.58925">
        <ele>514.508584</ele>
        <time>2021-08-12T15:56:08.000Z</time>
      </trkpt>
      <trkpt lat="48.15273" lon="11.58916">
        <ele>514.520214</ele>
        <time>2021-08-12T15:56:10.000Z</time>
      </trkpt>
      <trkpt lat="48.15269" lon="11.58908">
        <ele>514.532392</ele>
        <time>2021-08-12T15:56:12.000Z</time>
      </trkpt>
      <trkpt lat="48.15244" lon="11.58869">
        <ele>514.646512</ele>
        <time>2021-08-12T15:56:21.000Z</time>
      </trkpt>
      <trkpt lat="48.15228" lon="11.58847">
        <ele>514.761167</ele>
        <time>2021-08-12T15:56:26.000Z</time>
      </trkpt>
      <trkpt lat="48.15219" lon="11.5884">
        <ele>514.813625</ele>
        <time>2021-08-12T15:56:28.000Z</time>
      </trkpt>
      <trkpt lat="48.15215" lon="11.58836">
        <ele>514.840429</ele>
        <time>2021-08-12T15:56:29.000Z</time>
      </trkpt>
      <trkpt lat="48.15202" lon="11.58818">
        <ele>514.933448</ele>
        <time>2021-08-12T15:56:33.000Z</time>
      </trkpt>
      <trkpt lat="48.15177" lon="11.58788">
        <ele>515.102742</ele>
        <time>2021-08-12T15:56:40.000Z</time>
      </trkpt>
      <trkpt lat="48.15173" lon="11.58784">
        <ele>515.125763</ele>
        <time>2021-08-12T15:56:41.000Z</time>
      </trkpt>
      <trkpt lat="48.15157" lon="11.58769">
        <ele>515.226089</ele>
        <time>2021-08-12T15:56:46.000Z</time>
      </trkpt>
      <trkpt lat="48.15126" lon="11.58753">
        <ele>515.401578</ele>
        <time>2021-08-12T15:56:53.000Z</time>
      </trkpt>
      <trkpt lat="48.15117" lon="11.58766">
        <ele>515.468914</ele>
        <time>2021-08-12T15:56:57.000Z</time>
      </trkpt>
      <trkpt lat="48.15106" lon="11.58782">
        <ele>515.521848</ele>
        <time>2021-08-12T15:57:02.000Z</time>
      </trkpt>
      <trkpt lat="48.15084" lon="11.58796">
        <ele>515.536304</ele>
        <time>2021-08-12T15:57:10.000Z</time>
      </trkpt>
      <trkpt lat="48.15063" lon="11.58805">
        <ele>515.548952</ele>
        <time>2021-08-12T15:57:18.000Z</time>
      </trkpt>
      <trkpt lat="48.15056" lon="11.58807">
        <ele>515.553622</ele>
        <time>2021-08-12T15:57:21.000Z</time>
      </trkpt>
      <trkpt lat="48.15047" lon="11.58809">
        <ele>515.55866</ele>
        <time>2021-08-12T15:57:24.000Z</time>
      </trkpt>
      <trkpt lat="48.15035" lon="11.58809">
        <ele>515.566028</ele>
        <time>2021-08-12T15:57:28.000Z</time>
      </trkpt>
      <trkpt lat="48.15028" lon="11.58806">
        <ele>515.570408</ele>
        <time>2021-08-12T15:57:30.000Z</time>
      </trkpt>
      <trkpt lat="48.15024" lon="11.58804">
        <ele>515.572687</ele>
        <time>2021-08-12T15:57:31.000Z</time>
      </trkpt>
      <trkpt lat="48.15002" lon="11.58788">
        <ele>515.587017</ele>
        <time>2021-08-12T15:57:38.000Z</time>
      </trkpt>
      <trkpt lat="48.14984" lon="11.58775">
        <ele>515.599074</ele>
        <time>2021-08-12T15:57:46.000Z</time>
      </trkpt>
      <trkpt lat="48.14977" lon="11.58769">
        <ele>515.60372</ele>
        <time>2021-08-12T15:57:49.000Z</time>
      </trkpt>
      <trkpt lat="48.14971" lon="11.58767">
        <ele>515.607361</ele>
        <time>2021-08-12T15:57:52.000Z</time>
      </trkpt>
      <trkpt lat="48.14956" lon="11.58774">
        <ele>515.616972</ele>
        <time>2021-08-12T15:57:58.000Z</time>
      </trkpt>
      <trkpt lat="48.14931" lon="11.58774">
        <ele>515.680448</ele>
        <time>2021-08-12T15:58:06.000Z</time>
      </trkpt>
      <trkpt lat="48.14913" lon="11.58776">
        <ele>515.769916</ele>
        <time>2021-08-12T15:58:12.000Z</time>
      </trkpt>
      <trkpt lat="48.14909" lon="11.58776">
        <ele>515.791985</ele>
        <time>2021-08-12T15:58:14.000Z</time>
      </trkpt>
      <trkpt lat="48.14902" lon="11.58779">
        <ele>515.831985</ele>
        <time>2021-08-12T15:58:18.000Z</time>
      </trkpt>
      <trkpt lat="48.14896" lon="11.58778">
        <ele>515.862407</ele>
        <time>2021-08-12T15:58:20.000Z</time>
      </trkpt>
      <trkpt lat="48.1488" lon="11.58776">
        <ele>515.941795</ele>
        <time>2021-08-12T15:58:26.000Z</time>
      </trkpt>
      <trkpt lat="48.14854" lon="11.58773">
        <ele>516.079068</ele>
        <time>2021-08-12T15:58:35.000Z</time>
      </trkpt>
      <trkpt lat="48.14838" lon="11.58773">
        <ele>516.157042</ele>
        <time>2021-08-12T15:58:41.000Z</time>
      </trkpt>
      <trkpt lat="48.14819" lon="11.5877">
        <ele>516.258007</ele>
        <time>2021-08-12T15:58:48.000Z</time>
      </trkpt>
      <trkpt lat="48.14809" lon="11.5877">
        <ele>516.307784</ele>
        <time>2021-08-12T15:58:51.000Z</time>
      </trkpt>
      <trkpt lat="48.14789" lon="11.58768">
        <ele>516.411117</ele>
        <time>2021-08-12T15:58:57.000Z</time>
      </trkpt>
      <trkpt lat="48.14753" lon="11.58769">
        <ele>516.62808</ele>
        <time>2021-08-12T15:59:08.000Z</time>
      </trkpt>
      <trkpt lat="48.14732" lon="11.58769">
        <ele>516.812467</ele>
        <time>2021-08-12T15:59:14.000Z</time>
      </trkpt>
      <trkpt lat="48.14718" lon="11.58772">
        <ele>516.936217</ele>
        <time>2021-08-12T15:59:18.000Z</time>
      </trkpt>
      <trkpt lat="48.14693" lon="11.58772">
        <ele>517.155722</ele>
        <time>2021-08-12T15:59:25.000Z</time>
      </trkpt>
      <trkpt lat="48.14669" lon="11.58779">
        <ele>517.3774</ele>
        <time>2021-08-12T15:59:33.000Z</time>
      </trkpt>
      <trkpt lat="48.14658" lon="11.58787">
        <ele>517.478532</ele>
        <time>2021-08-12T15:59:39.000Z</time>
      </trkpt>
      <trkpt lat="48.14643" lon="11.58793">
        <ele>517.615393</ele>
        <time>2021-08-12T15:59:44.000Z</time>
      </trkpt>
      <trkpt lat="48.14624" lon="11.58802">
        <ele>517.795545</ele>
        <time>2021-08-12T15:59:50.000Z</time>
      </trkpt>
      <trkpt lat="48.14613" lon="11.58805">
        <ele>517.890599</ele>
        <time>2021-08-12T15:59:53.000Z</time>
      </trkpt>
      <trkpt lat="48.1461" lon="11.58806">
        <ele>517.918792</ele>
        <time>2021-08-12T15:59:54.000Z</time>
      </trkpt>
      <trkpt lat="48.14604" lon="11.58807">
        <ele>517.975214</ele>
        <time>2021-08-12T15:59:57.000Z</time>
      </trkpt>
      <trkpt lat="48.14597" lon="11.58811">
        <ele>518.032774</ele>
        <time>2021-08-12T16:00:02.000Z</time>
      </trkpt>
      <trkpt lat="48.14596" lon="11.58811">
        <ele>518.04508</ele>
        <time>2021-08-12T16:00:07.000Z</time>
      </trkpt>
      <trkpt lat="48.14596" lon="11.58811">
        <ele>518.04508</ele>
        <time>2021-08-12T16:00:10.000Z</time>
      </trkpt>
      <trkpt lat="48.14596" lon="11.58811">
        <ele>518.04508</ele>
        <time>2021-08-12T16:00:14.000Z</time>
      </trkpt>
      <trkpt lat="48.14596" lon="11.58811">
        <ele>518.04508</ele>
        <time>2021-08-12T16:00:16.000Z</time>
      </trkpt>
      <trkpt lat="48.14596" lon="11.58811">
        <ele>518.04508</ele>
        <time>2021-08-12T16:00:18.000Z</time>
      </trkpt>
      <trkpt lat="48.14596" lon="11.58811">
        <ele>518.04508</ele>
        <time>2021-08-12T16:00:32.000Z</time>
      </trkpt>
      <trkpt lat="48.14597" lon="11.58812">
        <ele>518.051087</ele>
        <time>2021-08-12T16:01:00.000Z</time>
      </trkpt>
      <trkpt lat="48.14597" lon="11.58812">
        <ele>518.056355</ele>
        <time>2021-08-12T16:01:10.000Z</time>
      </trkpt>
      <trkpt lat="48.14597" lon="11.58812">
        <ele>518.056355</ele>
        <time>2021-08-12T16:01:13.000Z</time>
      </trkpt>
      <trkpt lat="48.14597" lon="11.58812">
        <ele>518.056355</ele>
        <time>2021-08-12T16:01:16.000Z</time>
      </trkpt>
      <trkpt lat="48.14597" lon="11.58812">
        <ele>518.056355</ele>
        <time>2021-08-12T16:01:21.000Z</time>
      </trkpt>
      <trkpt lat="48.14597" lon="11.58812">
        <ele>518.056355</ele>
        <time>2021-08-12T16:01:24.000Z</time>
      </trkpt>
      <trkpt lat="48.14597" lon="11.58812">
        <ele>518.056355</ele>
        <time>2021-08-12T16:01:31.000Z</time>
      </trkpt>
      <trkpt lat="48.14598" lon="11.58812">
        <ele>518.061623</ele>
        <time>2021-08-12T16:02:02.000Z</time>
      </trkpt>
      <trkpt lat="48.14598" lon="11.58811">
        <ele>518.065845</ele>
        <time>2021-08-12T16:02:14.000Z</time>
      </trkpt>
      <trkpt lat="48.14598" lon="11.58811">
        <ele>518.065845</ele>
        <time>2021-08-12T16:02:22.000Z</time>
      </trkpt>
      <trkpt lat="48.14598" lon="11.58811">
        <ele>518.06781</ele>
        <time>2021-08-12T16:02:28.000Z</time>
      </trkpt>
      <trkpt lat="48.14598" lon="11.58811">
        <ele>518.070312</ele>
        <time>2021-08-12T16:02:46.000Z</time>
      </trkpt>
      <trkpt lat="48.14598" lon="11.5881">
        <ele>518.074241</ele>
        <time>2021-08-12T16:03:18.000Z</time>
      </trkpt>
      <trkpt lat="48.14598" lon="11.5881">
        <ele>518.076206</ele>
        <time>2021-08-12T16:03:28.000Z</time>
      </trkpt>
      <trkpt lat="48.14597" lon="11.58809">
        <ele>518.080145</ele>
        <time>2021-08-12T16:03:40.000Z</time>
      </trkpt>
      <trkpt lat="48.14592" lon="11.58815">
        <ele>518.138278</ele>
        <time>2021-08-12T16:03:43.000Z</time>
      </trkpt>
      <trkpt lat="48.14589" lon="11.58816">
        <ele>518.165814</ele>
        <time>2021-08-12T16:03:44.000Z</time>
      </trkpt>
      <trkpt lat="48.14585" lon="11.58818">
        <ele>518.206379</ele>
        <time>2021-08-12T16:03:46.000Z</time>
      </trkpt>
      <trkpt lat="48.14581" lon="11.58822">
        <ele>518.252186</ele>
        <time>2021-08-12T16:03:48.000Z</time>
      </trkpt>
      <trkpt lat="48.14567" lon="11.58831">
        <ele>518.386855</ele>
        <time>2021-08-12T16:03:52.000Z</time>
      </trkpt>
      <trkpt lat="48.14557" lon="11.58841">
        <ele>518.502478</ele>
        <time>2021-08-12T16:03:57.000Z</time>
      </trkpt>
      <trkpt lat="48.14555" lon="11.58845">
        <ele>518.526496</ele>
        <time>2021-08-12T16:03:59.000Z</time>
      </trkpt>
      <trkpt lat="48.14554" lon="11.58848">
        <ele>518.550034</ele>
        <time>2021-08-12T16:04:02.000Z</time>
      </trkpt>
      <trkpt lat="48.14554" lon="11.58848">
        <ele>518.552795</ele>
        <time>2021-08-12T16:04:06.000Z</time>
      </trkpt>
      <trkpt lat="48.14554" lon="11.58848">
        <ele>518.552795</ele>
        <time>2021-08-12T16:04:07.000Z</time>
      </trkpt>
      <trkpt lat="48.14554" lon="11.58848">
        <ele>518.552795</ele>
        <time>2021-08-12T16:04:08.000Z</time>
      </trkpt>
      <trkpt lat="48.14554" lon="11.58848">
        <ele>518.552795</ele>
        <time>2021-08-12T16:04:16.000Z</time>
      </trkpt>
      <trkpt lat="48.14551" lon="11.58849">
        <ele>518.576613</ele>
        <time>2021-08-12T16:04:22.000Z</time>
      </trkpt>
      <trkpt lat="48.14549" lon="11.58851">
        <ele>518.603339</ele>
        <time>2021-08-12T16:04:24.000Z</time>
      </trkpt>
      <trkpt lat="48.14535" lon="11.58858">
        <ele>518.736302</ele>
        <time>2021-08-12T16:04:29.000Z</time>
      </trkpt>
      <trkpt lat="48.14531" lon="11.5886">
        <ele>518.777583</ele>
        <time>2021-08-12T16:04:31.000Z</time>
      </trkpt>
      <trkpt lat="48.14527" lon="11.58858">
        <ele>518.81243</ele>
        <time>2021-08-12T16:04:33.000Z</time>
      </trkpt>
      <trkpt lat="48.1451" lon="11.58852">
        <ele>518.972456</ele>
        <time>2021-08-12T16:04:39.000Z</time>
      </trkpt>
      <trkpt lat="48.14506" lon="11.5885">
        <ele>519.011933</ele>
        <time>2021-08-12T16:04:40.000Z</time>
      </trkpt>
      <trkpt lat="48.14497" lon="11.58852">
        <ele>519.098827</ele>
        <time>2021-08-12T16:04:43.000Z</time>
      </trkpt>
      <trkpt lat="48.14488" lon="11.58848">
        <ele>519.181589</ele>
        <time>2021-08-12T16:04:46.000Z</time>
      </trkpt>
      <trkpt lat="48.14472" lon="11.58841">
        <ele>519.332021</ele>
        <time>2021-08-12T16:04:51.000Z</time>
      </trkpt>
      <trkpt lat="48.14444" lon="11.58835">
        <ele>519.598387</ele>
        <time>2021-08-12T16:04:58.000Z</time>
      </trkpt>
      <trkpt lat="48.14419" lon="11.58839">
        <ele>519.848309</ele>
        <time>2021-08-12T16:05:05.000Z</time>
      </trkpt>
      <trkpt lat="48.14396" lon="11.58834">
        <ele>520.178486</ele>
        <time>2021-08-12T16:05:12.000Z</time>
      </trkpt>
      <trkpt lat="48.14378" lon="11.58835">
        <ele>520.431879</ele>
        <time>2021-08-12T16:05:17.000Z</time>
      </trkpt>
      <trkpt lat="48.14375" lon="11.58835">
        <ele>520.470992</ele>
        <time>2021-08-12T16:05:18.000Z</time>
      </trkpt>
      <trkpt lat="48.14367" lon="11.5883">
        <ele>520.592283</ele>
        <time>2021-08-12T16:05:22.000Z</time>
      </trkpt>
      <trkpt lat="48.14364" lon="11.58829">
        <ele>520.629779</ele>
        <time>2021-08-12T16:05:23.000Z</time>
      </trkpt>
      <trkpt lat="48.14358" lon="11.58823">
        <ele>520.731519</ele>
        <time>2021-08-12T16:05:28.000Z</time>
      </trkpt>
      <trkpt lat="48.1435" lon="11.58811">
        <ele>520.896468</ele>
        <time>2021-08-12T16:05:33.000Z</time>
      </trkpt>
      <trkpt lat="48.14349" lon="11.58808">
        <ele>520.922111</ele>
        <time>2021-08-12T16:05:34.000Z</time>
      </trkpt>
      <trkpt lat="48.14349" lon="11.58806">
        <ele>520.946074</ele>
        <time>2021-08-12T16:05:35.000Z</time>
      </trkpt>
      <trkpt lat="48.14347" lon="11.58802">
        <ele>520.983584</ele>
        <time>2021-08-12T16:05:37.000Z</time>
      </trkpt>
      <trkpt lat="48.14346" lon="11.588">
        <ele>521.011496</ele>
        <time>2021-08-12T16:05:39.000Z</time>
      </trkpt>
      <trkpt lat="48.14346" lon="11.58799">
        <ele>521.020817</ele>
        <time>2021-08-12T16:05:40.000Z</time>
      </trkpt>
      <trkpt lat="48.14346" lon="11.58796">
        <ele>521.046023</ele>
        <time>2021-08-12T16:05:46.000Z</time>
      </trkpt>
      <trkpt lat="48.14346" lon="11.58796">
        <ele>521.046023</ele>
        <time>2021-08-12T16:05:49.000Z</time>
      </trkpt>
      <trkpt lat="48.14346" lon="11.58796">
        <ele>521.046023</ele>
        <time>2021-08-12T16:06:01.000Z</time>
      </trkpt>
      <trkpt lat="48.14346" lon="11.58796">
        <ele>521.046023</ele>
        <time>2021-08-12T16:06:03.000Z</time>
      </trkpt>
      <trkpt lat="48.14347" lon="11.58796">
        <ele>521.053252</ele>
        <time>2021-08-12T16:06:24.000Z</time>
      </trkpt>
      <trkpt lat="48.14347" lon="11.58796">
        <ele>521.053252</ele>
        <time>2021-08-12T16:06:27.000Z</time>
      </trkpt>
      <trkpt lat="48.14347" lon="11.58796">
        <ele>521.053252</ele>
        <time>2021-08-12T16:06:33.000Z</time>
      </trkpt>
      <trkpt lat="48.14347" lon="11.58796">
        <ele>521.053252</ele>
        <time>2021-08-12T16:06:35.000Z</time>
      </trkpt>
      <trkpt lat="48.14347" lon="11.58796">
        <ele>521.053252</ele>
        <time>2021-08-12T16:06:38.000Z</time>
      </trkpt>
      <trkpt lat="48.14347" lon="11.58796">
        <ele>521.053252</ele>
        <time>2021-08-12T16:06:44.000Z</time>
      </trkpt>
      <trkpt lat="48.14347" lon="11.58796">
        <ele>521.053252</ele>
        <time>2021-08-12T16:06:59.000Z</time>
      </trkpt>
      <trkpt lat="48.14346" lon="11.58795">
        <ele>521.057838</ele>
        <time>2021-08-12T16:07:00.000Z</time>
      </trkpt>
      <trkpt lat="48.14341" lon="11.5879">
        <ele>521.152537</ele>
        <time>2021-08-12T16:07:03.000Z</time>
      </trkpt>
      <trkpt lat="48.1434" lon="11.58777">
        <ele>521.270513</ele>
        <time>2021-08-12T16:07:06.000Z</time>
      </trkpt>
      <trkpt lat="48.1434" lon="11.58767">
        <ele>521.363984</ele>
        <time>2021-08-12T16:07:08.000Z</time>
      </trkpt>
      <trkpt lat="48.14342" lon="11.58757">
        <ele>521.459268</ele>
        <time>2021-08-12T16:07:10.000Z</time>
      </trkpt>
      <trkpt lat="48.14347" lon="11.58735">
        <ele>521.682527</ele>
        <time>2021-08-12T16:07:15.000Z</time>
      </trkpt>
      <trkpt lat="48.14355" lon="11.58713">
        <ele>521.907189</ele>
        <time>2021-08-12T16:07:20.000Z</time>
      </trkpt>
      <trkpt lat="48.14361" lon="11.58682">
        <ele>522.214896</ele>
        <time>2021-08-12T16:07:26.000Z</time>
      </trkpt>
      <trkpt lat="48.14368" lon="11.58644">
        <ele>522.434025</ele>
        <time>2021-08-12T16:07:33.000Z</time>
      </trkpt>
      <trkpt lat="48.14373" lon="11.58619">
        <ele>522.551055</ele>
        <time>2021-08-12T16:07:37.000Z</time>
      </trkpt>
      <trkpt lat="48.14376" lon="11.58601">
        <ele>522.635324</ele>
        <time>2021-08-12T16:07:40.000Z</time>
      </trkpt>
      <trkpt lat="48.14383" lon="11.58554">
        <ele>522.854704</ele>
        <time>2021-08-12T16:07:48.000Z</time>
      </trkpt>
      <trkpt lat="48.14394" lon="11.58518">
        <ele>523.034736</ele>
        <time>2021-08-12T16:07:54.000Z</time>
      </trkpt>
      <trkpt lat="48.14403" lon="11.58486">
        <ele>523.190442</ele>
        <time>2021-08-12T16:08:00.000Z</time>
      </trkpt>
      <trkpt lat="48.1441" lon="11.58462">
        <ele>523.307792</ele>
        <time>2021-08-12T16:08:06.000Z</time>
      </trkpt>
      <trkpt lat="48.14411" lon="11.58461">
        <ele>523.318945</ele>
        <time>2021-08-12T16:08:11.000Z</time>
      </trkpt>
      <trkpt lat="48.14411" lon="11.58461">
        <ele>523.318945</ele>
        <time>2021-08-12T16:08:19.000Z</time>
      </trkpt>
      <trkpt lat="48.14411" lon="11.58461">
        <ele>523.318945</ele>
        <time>2021-08-12T16:08:22.000Z</time>
      </trkpt>
      <trkpt lat="48.14411" lon="11.58461">
        <ele>523.318945</ele>
        <time>2021-08-12T16:08:29.000Z</time>
      </trkpt>
      <trkpt lat="48.14411" lon="11.58461">
        <ele>523.318945</ele>
        <time>2021-08-12T16:08:32.000Z</time>
      </trkpt>
      <trkpt lat="48.14411" lon="11.58458">
        <ele>523.332084</ele>
        <time>2021-08-12T16:08:45.000Z</time>
      </trkpt>
      <trkpt lat="48.14409" lon="11.58456">
        <ele>523.346414</ele>
        <time>2021-08-12T16:08:46.000Z</time>
      </trkpt>
      <trkpt lat="48.14409" lon="11.58451">
        <ele>523.367802</ele>
        <time>2021-08-12T16:08:48.000Z</time>
      </trkpt>
      <trkpt lat="48.1441" lon="11.58449">
        <ele>523.380682</ele>
        <time>2021-08-12T16:08:49.000Z</time>
      </trkpt>
      <trkpt lat="48.14423" lon="11.58435">
        <ele>523.487538</ele>
        <time>2021-08-12T16:08:54.000Z</time>
      </trkpt>
      <trkpt lat="48.1443" lon="11.58428">
        <ele>523.563655</ele>
        <time>2021-08-12T16:08:56.000Z</time>
      </trkpt>
      <trkpt lat="48.1444" lon="11.58415">
        <ele>523.701003</ele>
        <time>2021-08-12T16:08:59.000Z</time>
      </trkpt>
      <trkpt lat="48.1445" lon="11.58382">
        <ele>523.96295</ele>
        <time>2021-08-12T16:09:06.000Z</time>
      </trkpt>
      <trkpt lat="48.14456" lon="11.58345">
        <ele>524.237029</ele>
        <time>2021-08-12T16:09:13.000Z</time>
      </trkpt>
      <trkpt lat="48.14463" lon="11.58312">
        <ele>524.483999</ele>
        <time>2021-08-12T16:09:19.000Z</time>
      </trkpt>
      <trkpt lat="48.14471" lon="11.58259">
        <ele>524.870614</ele>
        <time>2021-08-12T16:09:28.000Z</time>
      </trkpt>
      <trkpt lat="48.14479" lon="11.5822">
        <ele>525.165488</ele>
        <time>2021-08-12T16:09:35.000Z</time>
      </trkpt>
      <trkpt lat="48.14481" lon="11.5821">
        <ele>525.240434</ele>
        <time>2021-08-12T16:09:37.000Z</time>
      </trkpt>
      <trkpt lat="48.14482" lon="11.58204">
        <ele>525.281481</ele>
        <time>2021-08-12T16:09:38.000Z</time>
      </trkpt>
      <trkpt lat="48.14484" lon="11.58193">
        <ele>525.362665</ele>
        <time>2021-08-12T16:09:40.000Z</time>
      </trkpt>
      <trkpt lat="48.14486" lon="11.58182">
        <ele>525.444832</ele>
        <time>2021-08-12T16:09:42.000Z</time>
      </trkpt>
      <trkpt lat="48.14488" lon="11.58172">
        <ele>525.4804</ele>
        <time>2021-08-12T16:09:44.000Z</time>
      </trkpt>
      <trkpt lat="48.14488" lon="11.58167">
        <ele>525.498209</ele>
        <time>2021-08-12T16:09:45.000Z</time>
      </trkpt>
      <trkpt lat="48.14498" lon="11.58111">
        <ele>525.693012</ele>
        <time>2021-08-12T16:09:54.000Z</time>
      </trkpt>
      <trkpt lat="48.14508" lon="11.58058">
        <ele>525.883399</ele>
        <time>2021-08-12T16:10:02.000Z</time>
      </trkpt>
      <trkpt lat="48.14517" lon="11.5801">
        <ele>526.051314</ele>
        <time>2021-08-12T16:10:09.000Z</time>
      </trkpt>
      <trkpt lat="48.14519" lon="11.58002">
        <ele>526.079879</ele>
        <time>2021-08-12T16:10:10.000Z</time>
      </trkpt>
      <trkpt lat="48.14521" lon="11.5799">
        <ele>526.122088</ele>
        <time>2021-08-12T16:10:12.000Z</time>
      </trkpt>
      <trkpt lat="48.14533" lon="11.57929">
        <ele>526.338827</ele>
        <time>2021-08-12T16:10:22.000Z</time>
      </trkpt>
      <trkpt lat="48.14537" lon="11.57915">
        <ele>526.336254</ele>
        <time>2021-08-12T16:10:26.000Z</time>
      </trkpt>
      <trkpt lat="48.14538" lon="11.57914">
        <ele>526.330177</ele>
        <time>2021-08-12T16:10:27.000Z</time>
      </trkpt>
      <trkpt lat="48.14539" lon="11.5791">
        <ele>526.319169</ele>
        <time>2021-08-12T16:10:29.000Z</time>
      </trkpt>
      <trkpt lat="48.14544" lon="11.57907">
        <ele>526.292307</ele>
        <time>2021-08-12T16:10:31.000Z</time>
      </trkpt>
      <trkpt lat="48.14549" lon="11.57908">
        <ele>526.268008</ele>
        <time>2021-08-12T16:10:33.000Z</time>
      </trkpt>
      <trkpt lat="48.14553" lon="11.57912">
        <ele>526.247585</ele>
        <time>2021-08-12T16:10:35.000Z</time>
      </trkpt>
      <trkpt lat="48.14555" lon="11.57913">
        <ele>526.238563</ele>
        <time>2021-08-12T16:10:36.000Z</time>
      </trkpt>
      <trkpt lat="48.14566" lon="11.57917">
        <ele>526.187791</ele>
        <time>2021-08-12T16:10:41.000Z</time>
      </trkpt>
      <trkpt lat="48.14568" lon="11.57917">
        <ele>526.180115</ele>
        <time>2021-08-12T16:10:44.000Z</time>
      </trkpt>
      <trkpt lat="48.1457" lon="11.57917">
        <ele>526.17108</ele>
        <time>2021-08-12T16:10:45.000Z</time>
      </trkpt>
      <trkpt lat="48.14572" lon="11.57918">
        <ele>526.160587</ele>
        <time>2021-08-12T16:10:46.000Z</time>
      </trkpt>
      <trkpt lat="48.14581" lon="11.57915">
        <ele>526.120255</ele>
        <time>2021-08-12T16:10:49.000Z</time>
      </trkpt>
      <trkpt lat="48.14588" lon="11.57916">
        <ele>526.085405</ele>
        <time>2021-08-12T16:10:52.000Z</time>
      </trkpt>
      <trkpt lat="48.14591" lon="11.57917">
        <ele>526.074409</ele>
        <time>2021-08-12T16:10:53.000Z</time>
      </trkpt>
      <trkpt lat="48.14593" lon="11.57919">
        <ele>526.063084</ele>
        <time>2021-08-12T16:10:54.000Z</time>
      </trkpt>
      <trkpt lat="48.14601" lon="11.5792">
        <ele>526.024475</ele>
        <time>2021-08-12T16:10:59.000Z</time>
      </trkpt>
      <trkpt lat="48.14605" lon="11.5792">
        <ele>526.007726</ele>
        <time>2021-08-12T16:11:00.000Z</time>
      </trkpt>
      <trkpt lat="48.1461" lon="11.57923">
        <ele>525.984296</ele>
        <time>2021-08-12T16:11:02.000Z</time>
      </trkpt>
      <trkpt lat="48.14612" lon="11.57926">
        <ele>525.97183</ele>
        <time>2021-08-12T16:11:04.000Z</time>
      </trkpt>
      <trkpt lat="48.14625" lon="11.57937">
        <ele>525.902992</ele>
        <time>2021-08-12T16:11:10.000Z</time>
      </trkpt>
      <trkpt lat="48.14643" lon="11.57945">
        <ele>525.819503</ele>
        <time>2021-08-12T16:11:15.000Z</time>
      </trkpt>
      <trkpt lat="48.14664" lon="11.57956">
        <ele>525.719739</ele>
        <time>2021-08-12T16:11:20.000Z</time>
      </trkpt>
      <trkpt lat="48.14669" lon="11.57957">
        <ele>525.697217</ele>
        <time>2021-08-12T16:11:21.000Z</time>
      </trkpt>
      <trkpt lat="48.14694" lon="11.57967">
        <ele>525.581698</ele>
        <time>2021-08-12T16:11:27.000Z</time>
      </trkpt>
      <trkpt lat="48.14702" lon="11.5797">
        <ele>525.545617</ele>
        <time>2021-08-12T16:11:30.000Z</time>
      </trkpt>
      <trkpt lat="48.14708" lon="11.57972">
        <ele>525.532541</ele>
        <time>2021-08-12T16:11:32.000Z</time>
      </trkpt>
      <trkpt lat="48.14728" lon="11.57977">
        <ele>525.486456</ele>
        <time>2021-08-12T16:11:37.000Z</time>
      </trkpt>
      <trkpt lat="48.14746" lon="11.57984">
        <ele>525.444394</ele>
        <time>2021-08-12T16:11:41.000Z</time>
      </trkpt>
      <trkpt lat="48.14753" lon="11.57987">
        <ele>525.427755</ele>
        <time>2021-08-12T16:11:43.000Z</time>
      </trkpt>
      <trkpt lat="48.14769" lon="11.57995">
        <ele>525.389496</ele>
        <time>2021-08-12T16:11:48.000Z</time>
      </trkpt>
      <trkpt lat="48.14777" lon="11.58001">
        <ele>525.369362</ele>
        <time>2021-08-12T16:11:52.000Z</time>
      </trkpt>
      <trkpt lat="48.14793" lon="11.58005">
        <ele>525.333175</ele>
        <time>2021-08-12T16:11:55.000Z</time>
      </trkpt>
      <trkpt lat="48.14806" lon="11.5801">
        <ele>525.303033</ele>
        <time>2021-08-12T16:11:58.000Z</time>
      </trkpt>
      <trkpt lat="48.14818" lon="11.58015">
        <ele>525.275918</ele>
        <time>2021-08-12T16:12:01.000Z</time>
      </trkpt>
      <trkpt lat="48.14822" lon="11.58018">
        <ele>525.26545</ele>
        <time>2021-08-12T16:12:02.000Z</time>
      </trkpt>
      <trkpt lat="48.14841" lon="11.58033">
        <ele>525.217047</ele>
        <time>2021-08-12T16:12:07.000Z</time>
      </trkpt>
      <trkpt lat="48.14865" lon="11.58052">
        <ele>525.156729</ele>
        <time>2021-08-12T16:12:13.000Z</time>
      </trkpt>
      <trkpt lat="48.14868" lon="11.58053">
        <ele>525.149667</ele>
        <time>2021-08-12T16:12:14.000Z</time>
      </trkpt>
      <trkpt lat="48.14886" lon="11.58058">
        <ele>525.077812</ele>
        <time>2021-08-12T16:12:19.000Z</time>
      </trkpt>
      <trkpt lat="48.14902" lon="11.58063">
        <ele>525.00815</ele>
        <time>2021-08-12T16:12:23.000Z</time>
      </trkpt>
      <trkpt lat="48.14906" lon="11.58065">
        <ele>524.990281</ele>
        <time>2021-08-12T16:12:24.000Z</time>
      </trkpt>
      <trkpt lat="48.14929" lon="11.58077">
        <ele>524.888237</ele>
        <time>2021-08-12T16:12:29.000Z</time>
      </trkpt>
      <trkpt lat="48.14967" lon="11.58096">
        <ele>524.719364</ele>
        <time>2021-08-12T16:12:37.000Z</time>
      </trkpt>
      <trkpt lat="48.14979" lon="11.58103">
        <ele>524.668117</ele>
        <time>2021-08-12T16:12:40.000Z</time>
      </trkpt>
      <trkpt lat="48.15002" lon="11.58115">
        <ele>524.565163</ele>
        <time>2021-08-12T16:12:46.000Z</time>
      </trkpt>
      <trkpt lat="48.15007" lon="11.58117">
        <ele>524.544802</ele>
        <time>2021-08-12T16:12:47.000Z</time>
      </trkpt>
      <trkpt lat="48.15031" lon="11.5813">
        <ele>524.437092</ele>
        <time>2021-08-12T16:12:53.000Z</time>
      </trkpt>
      <trkpt lat="48.15041" lon="11.58136">
        <ele>524.392816</ele>
        <time>2021-08-12T16:12:56.000Z</time>
      </trkpt>
      <trkpt lat="48.15051" lon="11.58143">
        <ele>524.387536</ele>
        <time>2021-08-12T16:12:59.000Z</time>
      </trkpt>
      <trkpt lat="48.15094" lon="11.58163">
        <ele>524.367619</ele>
        <time>2021-08-12T16:13:10.000Z</time>
      </trkpt>
      <trkpt lat="48.15122" lon="11.58178">
        <ele>524.354493</ele>
        <time>2021-08-12T16:13:17.000Z</time>
      </trkpt>
      <trkpt lat="48.1513" lon="11.58181">
        <ele>524.350646</ele>
        <time>2021-08-12T16:13:19.000Z</time>
      </trkpt>
      <trkpt lat="48.15166" lon="11.58199">
        <ele>524.334173</ele>
        <time>2021-08-12T16:13:28.000Z</time>
      </trkpt>
      <trkpt lat="48.15169" lon="11.582">
        <ele>524.332369</ele>
        <time>2021-08-12T16:13:29.000Z</time>
      </trkpt>
      <trkpt lat="48.15173" lon="11.58202">
        <ele>524.330836</ele>
        <time>2021-08-12T16:13:30.000Z</time>
      </trkpt>
      <trkpt lat="48.15191" lon="11.58212">
        <ele>524.322105</ele>
        <time>2021-08-12T16:13:35.000Z</time>
      </trkpt>
      <trkpt lat="48.15208" lon="11.58221">
        <ele>524.314093</ele>
        <time>2021-08-12T16:13:40.000Z</time>
      </trkpt>
      <trkpt lat="48.15237" lon="11.58249">
        <ele>524.303753</ele>
        <time>2021-08-12T16:13:48.000Z</time>
      </trkpt>
      <trkpt lat="48.15245" lon="11.58251">
        <ele>524.301381</ele>
        <time>2021-08-12T16:13:50.000Z</time>
      </trkpt>
      <trkpt lat="48.15253" lon="11.5825">
        <ele>524.298972</ele>
        <time>2021-08-12T16:13:52.000Z</time>
      </trkpt>
      <trkpt lat="48.15257" lon="11.58249">
        <ele>524.297731</ele>
        <time>2021-08-12T16:13:53.000Z</time>
      </trkpt>
      <trkpt lat="48.15261" lon="11.58247">
        <ele>524.296475</ele>
        <time>2021-08-12T16:13:54.000Z</time>
      </trkpt>
      <trkpt lat="48.15269" lon="11.58247">
        <ele>524.294192</ele>
        <time>2021-08-12T16:13:56.000Z</time>
      </trkpt>
      <trkpt lat="48.15277" lon="11.5825">
        <ele>524.291838</ele>
        <time>2021-08-12T16:13:58.000Z</time>
      </trkpt>
      <trkpt lat="48.15301" lon="11.58262">
        <ele>524.284562</ele>
        <time>2021-08-12T16:14:04.000Z</time>
      </trkpt>
      <trkpt lat="48.15314" lon="11.58267">
        <ele>524.280522</ele>
        <time>2021-08-12T16:14:07.000Z</time>
      </trkpt>
      <trkpt lat="48.15317" lon="11.58268">
        <ele>524.279438</ele>
        <time>2021-08-12T16:14:08.000Z</time>
      </trkpt>
      <trkpt lat="48.15322" lon="11.5827">
        <ele>524.278074</ele>
        <time>2021-08-12T16:14:09.000Z</time>
      </trkpt>
      <trkpt lat="48.15338" lon="11.58279">
        <ele>524.273076</ele>
        <time>2021-08-12T16:14:13.000Z</time>
      </trkpt>
      <trkpt lat="48.1537" lon="11.58296">
        <ele>524.263101</ele>
        <time>2021-08-12T16:14:21.000Z</time>
      </trkpt>
      <trkpt lat="48.15378" lon="11.583">
        <ele>524.260784</ele>
        <time>2021-08-12T16:14:23.000Z</time>
      </trkpt>
      <trkpt lat="48.15386" lon="11.58303">
        <ele>524.220852</ele>
        <time>2021-08-12T16:14:25.000Z</time>
      </trkpt>
      <trkpt lat="48.1539" lon="11.58305">
        <ele>524.190347</ele>
        <time>2021-08-12T16:14:26.000Z</time>
      </trkpt>
      <trkpt lat="48.15411" lon="11.58315">
        <ele>524.05267</ele>
        <time>2021-08-12T16:14:31.000Z</time>
      </trkpt>
      <trkpt lat="48.15417" lon="11.58317">
        <ele>524.008469</ele>
        <time>2021-08-12T16:14:33.000Z</time>
      </trkpt>
      <trkpt lat="48.15423" lon="11.58324">
        <ele>523.960422</ele>
        <time>2021-08-12T16:14:37.000Z</time>
      </trkpt>
      <trkpt lat="48.1542" lon="11.58341">
        <ele>523.886633</ele>
        <time>2021-08-12T16:14:41.000Z</time>
      </trkpt>
      <trkpt lat="48.15421" lon="11.58361">
        <ele>523.799195</ele>
        <time>2021-08-12T16:14:47.000Z</time>
      </trkpt>
      <trkpt lat="48.15421" lon="11.58365">
        <ele>523.782929</ele>
        <time>2021-08-12T16:14:48.000Z</time>
      </trkpt>
      <trkpt lat="48.15419" lon="11.58375">
        <ele>523.739074</ele>
        <time>2021-08-12T16:14:51.000Z</time>
      </trkpt>
      <trkpt lat="48.15417" lon="11.58392">
        <ele>523.66652</ele>
        <time>2021-08-12T16:14:55.000Z</time>
      </trkpt>
      <trkpt lat="48.15415" lon="11.58401">
        <ele>523.625302</ele>
        <time>2021-08-12T16:14:57.000Z</time>
      </trkpt>
      <trkpt lat="48.15413" lon="11.5841">
        <ele>523.585846</ele>
        <time>2021-08-12T16:14:59.000Z</time>
      </trkpt>
      <trkpt lat="48.15411" lon="11.5842">
        <ele>523.53691</ele>
        <time>2021-08-12T16:15:02.000Z</time>
      </trkpt>
      <trkpt lat="48.15408" lon="11.58429">
        <ele>523.49375</ele>
        <time>2021-08-12T16:15:04.000Z</time>
      </trkpt>
      <trkpt lat="48.154" lon="11.58446">
        <ele>523.406148</ele>
        <time>2021-08-12T16:15:07.000Z</time>
      </trkpt>
      <trkpt lat="48.15399" lon="11.58463">
        <ele>523.33149</ele>
        <time>2021-08-12T16:15:11.000Z</time>
      </trkpt>
      <trkpt lat="48.15397" lon="11.58479">
        <ele>523.264625</ele>
        <time>2021-08-12T16:15:15.000Z</time>
      </trkpt>
      <trkpt lat="48.1539" lon="11.58486">
        <ele>523.209431</ele>
        <time>2021-08-12T16:15:17.000Z</time>
      </trkpt>
      <trkpt lat="48.1539" lon="11.58489">
        <ele>523.196573</ele>
        <time>2021-08-12T16:15:19.000Z</time>
      </trkpt>
      <trkpt lat="48.1539" lon="11.5849">
        <ele>523.195717</ele>
        <time>2021-08-12T16:15:21.000Z</time>
      </trkpt>
      <trkpt lat="48.1539" lon="11.5849">
        <ele>523.195717</ele>
        <time>2021-08-12T16:15:23.000Z</time>
      </trkpt>
      <trkpt lat="48.1539" lon="11.5849">
        <ele>523.195717</ele>
        <time>2021-08-12T16:15:26.000Z</time>
      </trkpt>
      <trkpt lat="48.1539" lon="11.5849">
        <ele>523.195717</ele>
        <time>2021-08-12T16:15:32.000Z</time>
      </trkpt>
      <trkpt lat="48.1539" lon="11.5849">
        <ele>523.195717</ele>
        <time>2021-08-12T16:15:46.000Z</time>
      </trkpt>
      <trkpt lat="48.15391" lon="11.58489">
        <ele>523.19091</ele>
        <time>2021-08-12T16:15:55.000Z</time>
      </trkpt>
      <trkpt lat="48.15391" lon="11.58489">
        <ele>523.19091</ele>
        <time>2021-08-12T16:15:58.000Z</time>
      </trkpt>
      <trkpt lat="48.15391" lon="11.58489">
        <ele>523.19091</ele>
        <time>2021-08-12T16:16:01.000Z</time>
      </trkpt>
      <trkpt lat="48.15391" lon="11.58489">
        <ele>523.19091</ele>
        <time>2021-08-12T16:16:04.000Z</time>
      </trkpt>
      <trkpt lat="48.15391" lon="11.58489">
        <ele>523.19091</ele>
        <time>2021-08-12T16:16:12.000Z</time>
      </trkpt>
      <trkpt lat="48.15391" lon="11.58489">
        <ele>523.19091</ele>
        <time>2021-08-12T16:16:15.000Z</time>
      </trkpt>
      <trkpt lat="48.15391" lon="11.58489">
        <ele>523.19091</ele>
        <time>2021-08-12T16:16:20.000Z</time>
      </trkpt>
      <trkpt lat="48.15391" lon="11.58489">
        <ele>523.19091</ele>
        <time>2021-08-12T16:16:22.000Z</time>
      </trkpt>
      <trkpt lat="48.15391" lon="11.58489">
        <ele>523.19091</ele>
        <time>2021-08-12T16:16:24.000Z</time>
      </trkpt>
      <trkpt lat="48.15391" lon="11.58489">
        <ele>523.19091</ele>
        <time>2021-08-12T16:16:27.000Z</time>
      </trkpt>
      <trkpt lat="48.15391" lon="11.58489">
        <ele>523.19091</ele>
        <time>2021-08-12T16:16:55.000Z</time>
      </trkpt>
      <trkpt lat="48.15391" lon="11.58493">
        <ele>523.172749</ele>
        <time>2021-08-12T16:16:57.000Z</time>
      </trkpt>
      <trkpt lat="48.1539" lon="11.58498">
        <ele>523.153866</ele>
        <time>2021-08-12T16:16:58.000Z</time>
      </trkpt>
      <trkpt lat="48.15387" lon="11.58515">
        <ele>523.098123</ele>
        <time>2021-08-12T16:17:03.000Z</time>
      </trkpt>
      <trkpt lat="48.15385" lon="11.58531">
        <ele>523.077829</ele>
        <time>2021-08-12T16:17:08.000Z</time>
      </trkpt>
      <trkpt lat="48.15384" lon="11.58535">
        <ele>523.072277</ele>
        <time>2021-08-12T16:17:09.000Z</time>
      </trkpt>
      <trkpt lat="48.1538" lon="11.58561">
        <ele>523.040603</ele>
        <time>2021-08-12T16:17:14.000Z</time>
      </trkpt>
      <trkpt lat="48.15379" lon="11.58566">
        <ele>523.033617</ele>
        <time>2021-08-12T16:17:15.000Z</time>
      </trkpt>
      <trkpt lat="48.15371" lon="11.58606">
        <ele>522.981912</ele>
        <time>2021-08-12T16:17:22.000Z</time>
      </trkpt>
      <trkpt lat="48.15365" lon="11.58632">
        <ele>522.948201</ele>
        <time>2021-08-12T16:17:28.000Z</time>
      </trkpt>
      <trkpt lat="48.15356" lon="11.58663">
        <ele>522.906777</ele>
        <time>2021-08-12T16:17:34.000Z</time>
      </trkpt>
      <trkpt lat="48.15346" lon="11.58699">
        <ele>522.859529</ele>
        <time>2021-08-12T16:17:41.000Z</time>
      </trkpt>
      <trkpt lat="48.15342" lon="11.58722">
        <ele>522.830394</ele>
        <time>2021-08-12T16:17:46.000Z</time>
      </trkpt>
      <trkpt lat="48.15337" lon="11.58737">
        <ele>522.809158</ele>
        <time>2021-08-12T16:17:50.000Z</time>
      </trkpt>
      <trkpt lat="48.15334" lon="11.58743">
        <ele>522.800064</ele>
        <time>2021-08-12T16:17:52.000Z</time>
      </trkpt>
      <trkpt lat="48.15335" lon="11.5875">
        <ele>522.79138</ele>
        <time>2021-08-12T16:17:54.000Z</time>
      </trkpt>
      <trkpt lat="48.15338" lon="11.5876">
        <ele>522.777697</ele>
        <time>2021-08-12T16:17:57.000Z</time>
      </trkpt>
      <trkpt lat="48.1534" lon="11.58767">
        <ele>522.774659</ele>
        <time>2021-08-12T16:17:59.000Z</time>
      </trkpt>
      <trkpt lat="48.15353" lon="11.58777">
        <ele>522.772437</ele>
        <time>2021-08-12T16:18:03.000Z</time>
      </trkpt>
      <trkpt lat="48.15368" lon="11.58781">
        <ele>522.770196</ele>
        <time>2021-08-12T16:18:07.000Z</time>
      </trkpt>
      <trkpt lat="48.15386" lon="11.58791">
        <ele>522.767336</ele>
        <time>2021-08-12T16:18:12.000Z</time>
      </trkpt>
      <trkpt lat="48.15402" lon="11.58804">
        <ele>522.764518</ele>
        <time>2021-08-12T16:18:17.000Z</time>
      </trkpt>
      <trkpt lat="48.15414" lon="11.58813">
        <ele>522.762463</ele>
        <time>2021-08-12T16:18:21.000Z</time>
      </trkpt>
      <trkpt lat="48.1543" lon="11.58829">
        <ele>522.759646</ele>
        <time>2021-08-12T16:18:27.000Z</time>
      </trkpt>
      <trkpt lat="48.15445" lon="11.58845">
        <ele>522.756827</ele>
        <time>2021-08-12T16:18:33.000Z</time>
      </trkpt>
      <trkpt lat="48.15462" lon="11.58837">
        <ele>522.75414</ele>
        <time>2021-08-12T16:18:38.000Z</time>
      </trkpt>
      <trkpt lat="48.15471" lon="11.58838">
        <ele>522.752825</ele>
        <time>2021-08-12T16:18:41.000Z</time>
      </trkpt>
      <trkpt lat="48.15474" lon="11.5884">
        <ele>522.75221</ele>
        <time>2021-08-12T16:18:44.000Z</time>
      </trkpt>
      <trkpt lat="48.15475" lon="11.58842">
        <ele>522.751949</ele>
        <time>2021-08-12T16:18:51.000Z</time>
      </trkpt>
      <trkpt lat="48.15475" lon="11.58842">
        <ele>522.751949</ele>
        <time>2021-08-12T16:18:59.000Z</time>
      </trkpt>
      <trkpt lat="48.15475" lon="11.58842">
        <ele>522.751949</ele>
        <time>2021-08-12T16:19:08.000Z</time>
      </trkpt>
      <trkpt lat="48.15476" lon="11.58842">
        <ele>522.751873</ele>
        <time>2021-08-12T16:19:20.000Z</time>
      </trkpt>
      <trkpt lat="48.15476" lon="11.58842">
        <ele>522.751873</ele>
        <time>2021-08-12T16:19:37.000Z</time>
      </trkpt>
      <trkpt lat="48.15475" lon="11.58842">
        <ele>522.751792</ele>
        <time>2021-08-12T16:19:44.000Z</time>
      </trkpt>
      <trkpt lat="48.15474" lon="11.58834">
        <ele>522.750995</ele>
        <time>2021-08-12T16:19:46.000Z</time>
      </trkpt>
      <trkpt lat="48.15476" lon="11.58808">
        <ele>522.748323</ele>
        <time>2021-08-12T16:19:51.000Z</time>
      </trkpt>
      <trkpt lat="48.15484" lon="11.58775">
        <ele>522.769468</ele>
        <time>2021-08-12T16:19:57.000Z</time>
      </trkpt>
      <trkpt lat="48.15487" lon="11.58753">
        <ele>522.78474</ele>
        <time>2021-08-12T16:20:01.000Z</time>
      </trkpt>
      <trkpt lat="48.15495" lon="11.58708">
        <ele>522.816598</ele>
        <time>2021-08-12T16:20:09.000Z</time>
      </trkpt>
      <trkpt lat="48.15507" lon="11.58644">
        <ele>522.861023</ele>
        <time>2021-08-12T16:20:20.000Z</time>
      </trkpt>
      <trkpt lat="48.15509" lon="11.58633">
        <ele>522.86886</ele>
        <time>2021-08-12T16:20:22.000Z</time>
      </trkpt>
      <trkpt lat="48.15514" lon="11.58611">
        <ele>522.884782</ele>
        <time>2021-08-12T16:20:26.000Z</time>
      </trkpt>
      <trkpt lat="48.15518" lon="11.58587">
        <ele>522.901455</ele>
        <time>2021-08-12T16:20:31.000Z</time>
      </trkpt>
      <trkpt lat="48.1552" lon="11.5858">
        <ele>522.906763</ele>
        <time>2021-08-12T16:20:33.000Z</time>
      </trkpt>
      <trkpt lat="48.15521" lon="11.58574">
        <ele>522.911138</ele>
        <time>2021-08-12T16:20:35.000Z</time>
      </trkpt>
      <trkpt lat="48.15521" lon="11.58572">
        <ele>522.912019</ele>
        <time>2021-08-12T16:20:37.000Z</time>
      </trkpt>
      <trkpt lat="48.15521" lon="11.58572">
        <ele>522.912875</ele>
        <time>2021-08-12T16:20:43.000Z</time>
      </trkpt>
      <trkpt lat="48.15521" lon="11.58572">
        <ele>522.912875</ele>
        <time>2021-08-12T16:20:47.000Z</time>
      </trkpt>
      <trkpt lat="48.15521" lon="11.58572">
        <ele>522.912875</ele>
        <time>2021-08-12T16:20:54.000Z</time>
      </trkpt>
      <trkpt lat="48.15521" lon="11.58572">
        <ele>522.912875</ele>
        <time>2021-08-12T16:20:57.000Z</time>
      </trkpt>
      <trkpt lat="48.1552" lon="11.58571">
        <ele>522.913164</ele>
        <time>2021-08-12T16:21:02.000Z</time>
      </trkpt>
      <trkpt lat="48.15523" lon="11.58573">
        <ele>522.915816</ele>
        <time>2021-08-12T16:21:03.000Z</time>
      </trkpt>
      <trkpt lat="48.15536" lon="11.58587">
        <ele>522.933597</ele>
        <time>2021-08-12T16:21:07.000Z</time>
      </trkpt>
      <trkpt lat="48.1556" lon="11.58604">
        <ele>522.988318</ele>
        <time>2021-08-12T16:21:12.000Z</time>
      </trkpt>
      <trkpt lat="48.15575" lon="11.58614">
        <ele>523.024167</ele>
        <time>2021-08-12T16:21:15.000Z</time>
      </trkpt>
      <trkpt lat="48.15587" lon="11.58622">
        <ele>523.050498</ele>
        <time>2021-08-12T16:21:17.000Z</time>
      </trkpt>
      <trkpt lat="48.15591" lon="11.58626">
        <ele>523.061262</ele>
        <time>2021-08-12T16:21:18.000Z</time>
      </trkpt>
      <trkpt lat="48.15599" lon="11.58633">
        <ele>523.080933</ele>
        <time>2021-08-12T16:21:20.000Z</time>
      </trkpt>
      <trkpt lat="48.15608" lon="11.5864">
        <ele>523.101953</ele>
        <time>2021-08-12T16:21:22.000Z</time>
      </trkpt>
      <trkpt lat="48.15616" lon="11.58645">
        <ele>523.119371</ele>
        <time>2021-08-12T16:21:24.000Z</time>
      </trkpt>
      <trkpt lat="48.15619" lon="11.58649">
        <ele>523.128859</ele>
        <time>2021-08-12T16:21:25.000Z</time>
      </trkpt>
      <trkpt lat="48.15627" lon="11.58658">
        <ele>523.149866</ele>
        <time>2021-08-12T16:21:27.000Z</time>
      </trkpt>
      <trkpt lat="48.15633" lon="11.5866">
        <ele>523.161887</ele>
        <time>2021-08-12T16:21:28.000Z</time>
      </trkpt>
      <trkpt lat="48.15655" lon="11.58662">
        <ele>523.208864</ele>
        <time>2021-08-12T16:21:31.000Z</time>
      </trkpt>
      <trkpt lat="48.15671" lon="11.5867">
        <ele>523.242996</ele>
        <time>2021-08-12T16:21:35.000Z</time>
      </trkpt>
      <trkpt lat="48.15673" lon="11.5867">
        <ele>523.24886</ele>
        <time>2021-08-12T16:21:36.000Z</time>
      </trkpt>
      <trkpt lat="48.15676" lon="11.58668">
        <ele>523.255356</ele>
        <time>2021-08-12T16:21:37.000Z</time>
      </trkpt>
      <trkpt lat="48.15678" lon="11.5866">
        <ele>523.267256</ele>
        <time>2021-08-12T16:21:39.000Z</time>
      </trkpt>
      <trkpt lat="48.1568" lon="11.58652">
        <ele>523.279834</ele>
        <time>2021-08-12T16:21:41.000Z</time>
      </trkpt>
      <trkpt lat="48.15683" lon="11.58638">
        <ele>523.300113</ele>
        <time>2021-08-12T16:21:44.000Z</time>
      </trkpt>
      <trkpt lat="48.15685" lon="11.58628">
        <ele>523.338407</ele>
        <time>2021-08-12T16:21:46.000Z</time>
      </trkpt>
      <trkpt lat="48.15691" lon="11.58599">
        <ele>523.513205</ele>
        <time>2021-08-12T16:21:51.000Z</time>
      </trkpt>
      <trkpt lat="48.15695" lon="11.5858">
        <ele>523.624623</ele>
        <time>2021-08-12T16:21:54.000Z</time>
      </trkpt>
      <trkpt lat="48.15699" lon="11.58568">
        <ele>523.699429</ele>
        <time>2021-08-12T16:21:56.000Z</time>
      </trkpt>
      <trkpt lat="48.15704" lon="11.58542">
        <ele>523.858966</ele>
        <time>2021-08-12T16:22:01.000Z</time>
      </trkpt>
      <trkpt lat="48.15709" lon="11.58525">
        <ele>523.963349</ele>
        <time>2021-08-12T16:22:06.000Z</time>
      </trkpt>
      <trkpt lat="48.15714" lon="11.58506">
        <ele>524.083619</ele>
        <time>2021-08-12T16:22:12.000Z</time>
      </trkpt>
      <trkpt lat="48.15716" lon="11.58494">
        <ele>524.152453</ele>
        <time>2021-08-12T16:22:17.000Z</time>
      </trkpt>
      <trkpt lat="48.15716" lon="11.58494">
        <ele>524.152453</ele>
        <time>2021-08-12T16:22:20.000Z</time>
      </trkpt>
      <trkpt lat="48.15716" lon="11.58488">
        <ele>524.189828</ele>
        <time>2021-08-12T16:22:24.000Z</time>
      </trkpt>
      <trkpt lat="48.15717" lon="11.58484">
        <ele>524.209472</ele>
        <time>2021-08-12T16:22:25.000Z</time>
      </trkpt>
      <trkpt lat="48.15719" lon="11.58474">
        <ele>524.271095</ele>
        <time>2021-08-12T16:22:28.000Z</time>
      </trkpt>
      <trkpt lat="48.15721" lon="11.58467">
        <ele>524.314221</ele>
        <time>2021-08-12T16:22:31.000Z</time>
      </trkpt>
      <trkpt lat="48.1572" lon="11.58465">
        <ele>524.32618</ele>
        <time>2021-08-12T16:22:32.000Z</time>
      </trkpt>
      <trkpt lat="48.15718" lon="11.58463">
        <ele>524.346295</ele>
        <time>2021-08-12T16:22:34.000Z</time>
      </trkpt>
      <trkpt lat="48.15716" lon="11.58462">
        <ele>524.363846</ele>
        <time>2021-08-12T16:22:36.000Z</time>
      </trkpt>
      <trkpt lat="48.15708" lon="11.58461">
        <ele>524.438924</ele>
        <time>2021-08-12T16:22:42.000Z</time>
      </trkpt>
      <trkpt lat="48.15704" lon="11.58461">
        <ele>524.468313</ele>
        <time>2021-08-12T16:22:47.000Z</time>
      </trkpt>
      <trkpt lat="48.15702" lon="11.5846">
        <ele>524.48914</ele>
        <time>2021-08-12T16:22:52.000Z</time>
      </trkpt>
      <trkpt lat="48.15702" lon="11.58459">
        <ele>524.493781</ele>
        <time>2021-08-12T16:22:56.000Z</time>
      </trkpt>
      <trkpt lat="48.15699" lon="11.58458">
        <ele>524.517587</ele>
        <time>2021-08-12T16:22:59.000Z</time>
      </trkpt>
      <trkpt lat="48.15696" lon="11.58455">
        <ele>524.547741</ele>
        <time>2021-08-12T16:23:02.000Z</time>
      </trkpt>
      <trkpt lat="48.15696" lon="11.58455">
        <ele>524.547741</ele>
        <time>2021-08-12T16:23:09.000Z</time>
      </trkpt>
      <trkpt lat="48.15696" lon="11.58455">
        <ele>524.547741</ele>
        <time>2021-08-12T16:23:13.000Z</time>
      </trkpt>
      <trkpt lat="48.15696" lon="11.58455">
        <ele>524.547741</ele>
        <time>2021-08-12T16:23:17.000Z</time>
      </trkpt>
      <trkpt lat="48.15696" lon="11.58455">
        <ele>524.547741</ele>
        <time>2021-08-12T16:23:35.000Z</time>
      </trkpt>
      <trkpt lat="48.15696" lon="11.58455">
        <ele>524.547741</ele>
        <time>2021-08-12T16:23:37.000Z</time>
      </trkpt>
      <trkpt lat="48.15696" lon="11.58455">
        <ele>524.552049</ele>
        <time>2021-08-12T16:23:42.000Z</time>
      </trkpt>
      <trkpt lat="48.15694" lon="11.58455">
        <ele>524.564767</ele>
        <time>2021-08-12T16:23:58.000Z</time>
      </trkpt>
      <trkpt lat="48.15694" lon="11.58454">
        <ele>524.5684</ele>
        <time>2021-08-12T16:24:03.000Z</time>
      </trkpt>
      <trkpt lat="48.15694" lon="11.58454">
        <ele>524.5684</ele>
        <time>2021-08-12T16:24:06.000Z</time>
      </trkpt>
      <trkpt lat="48.15694" lon="11.58454">
        <ele>524.5684</ele>
        <time>2021-08-12T16:24:09.000Z</time>
      </trkpt>
      <trkpt lat="48.15694" lon="11.58454">
        <ele>524.5684</ele>
        <time>2021-08-12T16:24:16.000Z</time>
      </trkpt>
      <trkpt lat="48.15694" lon="11.58454">
        <ele>524.5684</ele>
        <time>2021-08-12T16:24:20.000Z</time>
      </trkpt>
      <trkpt lat="48.15694" lon="11.58454">
        <ele>524.5684</ele>
        <time>2021-08-12T16:24:38.000Z</time>
      </trkpt>
      <trkpt lat="48.15693" lon="11.58454">
        <ele>524.571895</ele>
        <time>2021-08-12T16:24:43.000Z</time>
      </trkpt>
      <trkpt lat="48.15693" lon="11.58454">
        <ele>524.571895</ele>
        <time>2021-08-12T16:24:53.000Z</time>
      </trkpt>
      <trkpt lat="48.15694" lon="11.58455">
        <ele>524.580227</ele>
        <time>2021-08-12T16:24:59.000Z</time>
      </trkpt>
      <trkpt lat="48.1573" lon="11.5858">
        <ele>524.93729</ele>
        <time>2021-08-12T17:28:22.000Z</time>
      </trkpt>
      <trkpt lat="48.15728" lon="11.58588">
        <ele>524.94503</ele>
        <time>2021-08-12T17:28:23.000Z</time>
      </trkpt>
      <trkpt lat="48.15728" lon="11.58589">
        <ele>524.945951</ele>
        <time>2021-08-12T17:28:24.000Z</time>
      </trkpt>
      <trkpt lat="48.15712" lon="11.58599">
        <ele>524.968648</ele>
        <time>2021-08-12T17:28:27.000Z</time>
      </trkpt>
      <trkpt lat="48.15702" lon="11.58634">
        <ele>525.003293</ele>
        <time>2021-08-12T17:28:34.000Z</time>
      </trkpt>
      <trkpt lat="48.1569" lon="11.58662">
        <ele>525.033674</ele>
        <time>2021-08-12T17:28:39.000Z</time>
      </trkpt>
      <trkpt lat="48.15688" lon="11.58666">
        <ele>525.038196</ele>
        <time>2021-08-12T17:28:40.000Z</time>
      </trkpt>
      <trkpt lat="48.15691" lon="11.58683">
        <ele>525.05411</ele>
        <time>2021-08-12T17:28:44.000Z</time>
      </trkpt>
      <trkpt lat="48.15689" lon="11.58705">
        <ele>525.074259</ele>
        <time>2021-08-12T17:28:48.000Z</time>
      </trkpt>
      <trkpt lat="48.15681" lon="11.58752">
        <ele>524.95406</ele>
        <time>2021-08-12T17:28:56.000Z</time>
      </trkpt>
      <trkpt lat="48.15679" lon="11.58771">
        <ele>524.786951</ele>
        <time>2021-08-12T17:28:59.000Z</time>
      </trkpt>
      <trkpt lat="48.15677" lon="11.5879">
        <ele>524.621978</ele>
        <time>2021-08-12T17:29:02.000Z</time>
      </trkpt>
      <trkpt lat="48.15676" lon="11.58796">
        <ele>524.56564</ele>
        <time>2021-08-12T17:29:03.000Z</time>
      </trkpt>
      <trkpt lat="48.15675" lon="11.58802">
        <ele>524.510295</ele>
        <time>2021-08-12T17:29:04.000Z</time>
      </trkpt>
      <trkpt lat="48.15674" lon="11.58814">
        <ele>524.40332</ele>
        <time>2021-08-12T17:29:06.000Z</time>
      </trkpt>
      <trkpt lat="48.15673" lon="11.58826">
        <ele>524.299225</ele>
        <time>2021-08-12T17:29:08.000Z</time>
      </trkpt>
      <trkpt lat="48.15671" lon="11.58837">
        <ele>524.201077</ele>
        <time>2021-08-12T17:29:10.000Z</time>
      </trkpt>
      <trkpt lat="48.15661" lon="11.58864">
        <ele>523.938378</ele>
        <time>2021-08-12T17:29:15.000Z</time>
      </trkpt>
      <trkpt lat="48.15659" lon="11.58869">
        <ele>523.886363</ele>
        <time>2021-08-12T17:29:16.000Z</time>
      </trkpt>
      <trkpt lat="48.15655" lon="11.58903">
        <ele>523.584778</ele>
        <time>2021-08-12T17:29:23.000Z</time>
      </trkpt>
      <trkpt lat="48.15656" lon="11.5893">
        <ele>523.355823</ele>
        <time>2021-08-12T17:29:28.000Z</time>
      </trkpt>
      <trkpt lat="48.15654" lon="11.58942">
        <ele>523.248281</ele>
        <time>2021-08-12T17:29:30.000Z</time>
      </trkpt>
      <trkpt lat="48.15654" lon="11.58948">
        <ele>523.190852</ele>
        <time>2021-08-12T17:29:31.000Z</time>
      </trkpt>
      <trkpt lat="48.15654" lon="11.58968">
        <ele>523.023559</ele>
        <time>2021-08-12T17:29:34.000Z</time>
      </trkpt>
      <trkpt lat="48.15654" lon="11.58975">
        <ele>522.962677</ele>
        <time>2021-08-12T17:29:35.000Z</time>
      </trkpt>
      <trkpt lat="48.15653" lon="11.58981">
        <ele>522.910504</ele>
        <time>2021-08-12T17:29:36.000Z</time>
      </trkpt>
      <trkpt lat="48.15651" lon="11.59007">
        <ele>522.709014</ele>
        <time>2021-08-12T17:29:39.000Z</time>
      </trkpt>
      <trkpt lat="48.1565" lon="11.59015">
        <ele>522.656217</ele>
        <time>2021-08-12T17:29:40.000Z</time>
      </trkpt>
      <trkpt lat="48.15649" lon="11.59069">
        <ele>522.338541</ele>
        <time>2021-08-12T17:29:46.000Z</time>
      </trkpt>
      <trkpt lat="48.15647" lon="11.59118">
        <ele>522.046133</ele>
        <time>2021-08-12T17:29:53.000Z</time>
      </trkpt>
      <trkpt lat="48.15645" lon="11.59133">
        <ele>521.952324</ele>
        <time>2021-08-12T17:29:55.000Z</time>
      </trkpt>
      <trkpt lat="48.15641" lon="11.59149">
        <ele>521.852641</ele>
        <time>2021-08-12T17:29:58.000Z</time>
      </trkpt>
      <trkpt lat="48.15639" lon="11.59161">
        <ele>521.77558</ele>
        <time>2021-08-12T17:30:01.000Z</time>
      </trkpt>
      <trkpt lat="48.15639" lon="11.59165">
        <ele>521.751512</ele>
        <time>2021-08-12T17:30:02.000Z</time>
      </trkpt>
      <trkpt lat="48.15646" lon="11.59166">
        <ele>521.696611</ele>
        <time>2021-08-12T17:30:05.000Z</time>
      </trkpt>
      <trkpt lat="48.15649" lon="11.59165">
        <ele>521.663314</ele>
        <time>2021-08-12T17:30:07.000Z</time>
      </trkpt>
      <trkpt lat="48.1566" lon="11.59164">
        <ele>521.565434</ele>
        <time>2021-08-12T17:30:12.000Z</time>
      </trkpt>
      <trkpt lat="48.15678" lon="11.59157">
        <ele>521.404851</ele>
        <time>2021-08-12T17:30:17.000Z</time>
      </trkpt>
      <trkpt lat="48.15685" lon="11.59157">
        <ele>521.34043</ele>
        <time>2021-08-12T17:30:19.000Z</time>
      </trkpt>
      <trkpt lat="48.15696" lon="11.59157">
        <ele>521.238433</ele>
        <time>2021-08-12T17:30:22.000Z</time>
      </trkpt>
      <trkpt lat="48.15728" lon="11.59167">
        <ele>521.138107</ele>
        <time>2021-08-12T17:30:29.000Z</time>
      </trkpt>
      <trkpt lat="48.15732" lon="11.5917">
        <ele>521.134519</ele>
        <time>2021-08-12T17:30:30.000Z</time>
      </trkpt>
      <trkpt lat="48.15764" lon="11.59187">
        <ele>521.107178</ele>
        <time>2021-08-12T17:30:38.000Z</time>
      </trkpt>
      <trkpt lat="48.15774" lon="11.59194">
        <ele>521.097509</ele>
        <time>2021-08-12T17:30:41.000Z</time>
      </trkpt>
      <trkpt lat="48.15792" lon="11.59201">
        <ele>521.08245</ele>
        <time>2021-08-12T17:30:46.000Z</time>
      </trkpt>
      <trkpt lat="48.15819" lon="11.59201">
        <ele>521.060647</ele>
        <time>2021-08-12T17:30:53.000Z</time>
      </trkpt>
      <trkpt lat="48.15837" lon="11.59209">
        <ele>521.045509</ele>
        <time>2021-08-12T17:30:58.000Z</time>
      </trkpt>
      <trkpt lat="48.15853" lon="11.59229">
        <ele>521.029136</ele>
        <time>2021-08-12T17:31:03.000Z</time>
      </trkpt>
      <trkpt lat="48.15856" lon="11.59233">
        <ele>521.025794</ele>
        <time>2021-08-12T17:31:04.000Z</time>
      </trkpt>
      <trkpt lat="48.15863" lon="11.5924">
        <ele>521.018712</ele>
        <time>2021-08-12T17:31:06.000Z</time>
      </trkpt>
      <trkpt lat="48.15871" lon="11.59245">
        <ele>521.011482</ele>
        <time>2021-08-12T17:31:08.000Z</time>
      </trkpt>
      <trkpt lat="48.1588" lon="11.59249">
        <ele>521.022489</ele>
        <time>2021-08-12T17:31:10.000Z</time>
      </trkpt>
      <trkpt lat="48.15911" lon="11.59246">
        <ele>521.062443</ele>
        <time>2021-08-12T17:31:17.000Z</time>
      </trkpt>
      <trkpt lat="48.15915" lon="11.59247">
        <ele>521.067332</ele>
        <time>2021-08-12T17:31:18.000Z</time>
      </trkpt>
      <trkpt lat="48.15918" lon="11.59249">
        <ele>521.072288</ele>
        <time>2021-08-12T17:31:19.000Z</time>
      </trkpt>
      <trkpt lat="48.15933" lon="11.59254">
        <ele>521.091693</ele>
        <time>2021-08-12T17:31:23.000Z</time>
      </trkpt>
      <trkpt lat="48.15955" lon="11.59268">
        <ele>521.123738</ele>
        <time>2021-08-12T17:31:30.000Z</time>
      </trkpt>
      <trkpt lat="48.1597" lon="11.59284">
        <ele>521.147704</ele>
        <time>2021-08-12T17:31:36.000Z</time>
      </trkpt>
      <trkpt lat="48.15976" lon="11.59299">
        <ele>521.162939</ele>
        <time>2021-08-12T17:31:39.000Z</time>
      </trkpt>
      <trkpt lat="48.15978" lon="11.59308">
        <ele>521.17078</ele>
        <time>2021-08-12T17:31:41.000Z</time>
      </trkpt>
      <trkpt lat="48.15978" lon="11.59333">
        <ele>521.192185</ele>
        <time>2021-08-12T17:31:47.000Z</time>
      </trkpt>
      <trkpt lat="48.15977" lon="11.59381">
        <ele>521.233996</ele>
        <time>2021-08-12T17:31:56.000Z</time>
      </trkpt>
      <trkpt lat="48.1597" lon="11.59399">
        <ele>521.241596</ele>
        <time>2021-08-12T17:32:01.000Z</time>
      </trkpt>
      <trkpt lat="48.15965" lon="11.59413">
        <ele>521.233523</ele>
        <time>2021-08-12T17:32:06.000Z</time>
      </trkpt>
      <trkpt lat="48.15965" lon="11.59418">
        <ele>521.230632</ele>
        <time>2021-08-12T17:32:09.000Z</time>
      </trkpt>
      <trkpt lat="48.15965" lon="11.5942">
        <ele>521.229729</ele>
        <time>2021-08-12T17:32:10.000Z</time>
      </trkpt>
      <trkpt lat="48.15967" lon="11.59421">
        <ele>521.228407</ele>
        <time>2021-08-12T17:32:11.000Z</time>
      </trkpt>
      <trkpt lat="48.15973" lon="11.59419">
        <ele>521.223693</ele>
        <time>2021-08-12T17:32:14.000Z</time>
      </trkpt>
      <trkpt lat="48.15982" lon="11.59413">
        <ele>521.216083</ele>
        <time>2021-08-12T17:32:18.000Z</time>
      </trkpt>
      <trkpt lat="48.15991" lon="11.59409">
        <ele>521.208833</ele>
        <time>2021-08-12T17:32:21.000Z</time>
      </trkpt>
      <trkpt lat="48.16009" lon="11.59403">
        <ele>521.194687</ele>
        <time>2021-08-12T17:32:26.000Z</time>
      </trkpt>
      <trkpt lat="48.16018" lon="11.59403">
        <ele>521.187647</ele>
        <time>2021-08-12T17:32:29.000Z</time>
      </trkpt>
      <trkpt lat="48.16023" lon="11.59405">
        <ele>521.183918</ele>
        <time>2021-08-12T17:32:32.000Z</time>
      </trkpt>
      <trkpt lat="48.16025" lon="11.59404">
        <ele>521.182091</ele>
        <time>2021-08-12T17:32:37.000Z</time>
      </trkpt>
      <trkpt lat="48.16025" lon="11.59404">
        <ele>521.182091</ele>
        <time>2021-08-12T17:32:41.000Z</time>
      </trkpt>
      <trkpt lat="48.16025" lon="11.59404">
        <ele>521.182091</ele>
        <time>2021-08-12T17:32:44.000Z</time>
      </trkpt>
      <trkpt lat="48.16025" lon="11.59404">
        <ele>521.182091</ele>
        <time>2021-08-12T17:33:00.000Z</time>
      </trkpt>
      <trkpt lat="48.16025" lon="11.59404">
        <ele>521.181962</ele>
        <time>2021-08-12T17:33:10.000Z</time>
      </trkpt>
      <trkpt lat="48.16025" lon="11.59403">
        <ele>521.18155</ele>
        <time>2021-08-12T17:33:24.000Z</time>
      </trkpt>
      <trkpt lat="48.16025" lon="11.59403">
        <ele>521.18155</ele>
        <time>2021-08-12T17:33:38.000Z</time>
      </trkpt>
      <trkpt lat="48.16025" lon="11.59403">
        <ele>521.18155</ele>
        <time>2021-08-12T17:33:43.000Z</time>
      </trkpt>
      <trkpt lat="48.16025" lon="11.59403">
        <ele>521.18155</ele>
        <time>2021-08-12T17:33:56.000Z</time>
      </trkpt>
      <trkpt lat="48.16025" lon="11.59403">
        <ele>521.18155</ele>
        <time>2021-08-12T17:33:59.000Z</time>
      </trkpt>
      <trkpt lat="48.16025" lon="11.59403">
        <ele>521.18155</ele>
        <time>2021-08-12T17:34:01.000Z</time>
      </trkpt>
      <trkpt lat="48.16025" lon="11.59403">
        <ele>521.18155</ele>
        <time>2021-08-12T17:34:03.000Z</time>
      </trkpt>
      <trkpt lat="48.16025" lon="11.59403">
        <ele>521.18155</ele>
        <time>2021-08-12T17:34:05.000Z</time>
      </trkpt>
      <trkpt lat="48.16025" lon="11.59403">
        <ele>521.18155</ele>
        <time>2021-08-12T17:34:08.000Z</time>
      </trkpt>
      <trkpt lat="48.16025" lon="11.59403">
        <ele>521.18155</ele>
        <time>2021-08-12T17:34:23.000Z</time>
      </trkpt>
      <trkpt lat="48.16025" lon="11.59403">
        <ele>521.18155</ele>
        <time>2021-08-12T17:34:27.000Z</time>
      </trkpt>
      <trkpt lat="48.16025" lon="11.59403">
        <ele>521.18155</ele>
        <time>2021-08-12T17:34:30.000Z</time>
      </trkpt>
      <trkpt lat="48.16025" lon="11.59403">
        <ele>521.18155</ele>
        <time>2021-08-12T17:34:46.000Z</time>
      </trkpt>
      <trkpt lat="48.16025" lon="11.59403">
        <ele>521.18155</ele>
        <time>2021-08-12T17:34:52.000Z</time>
      </trkpt>
      <trkpt lat="48.16025" lon="11.59403">
        <ele>521.18155</ele>
        <time>2021-08-12T17:34:55.000Z</time>
      </trkpt>
      <trkpt lat="48.16025" lon="11.59403">
        <ele>521.18155</ele>
        <time>2021-08-12T17:35:17.000Z</time>
      </trkpt>
      <trkpt lat="48.16025" lon="11.59403">
        <ele>521.18155</ele>
        <time>2021-08-12T17:35:20.000Z</time>
      </trkpt>
      <trkpt lat="48.16034" lon="11.59435">
        <ele>521.163867</ele>
        <time>2021-08-12T18:12:45.000Z</time>
      </trkpt>
      <trkpt lat="48.1606" lon="11.59418">
        <ele>521.142248</ele>
        <time>2021-08-12T18:12:48.000Z</time>
      </trkpt>
      <trkpt lat="48.16076" lon="11.59426">
        <ele>521.129069</ele>
        <time>2021-08-12T18:12:53.000Z</time>
      </trkpt>
      <trkpt lat="48.1608" lon="11.59429">
        <ele>521.126021</ele>
        <time>2021-08-12T18:12:54.000Z</time>
      </trkpt>
      <trkpt lat="48.16097" lon="11.59442">
        <ele>521.111046</ele>
        <time>2021-08-12T18:13:00.000Z</time>
      </trkpt>
      <trkpt lat="48.161" lon="11.59445">
        <ele>521.108349</ele>
        <time>2021-08-12T18:13:01.000Z</time>
      </trkpt>
      <trkpt lat="48.16109" lon="11.59459">
        <ele>521.103417</ele>
        <time>2021-08-12T18:13:05.000Z</time>
      </trkpt>
      <trkpt lat="48.16118" lon="11.59475">
        <ele>521.099537</ele>
        <time>2021-08-12T18:13:09.000Z</time>
      </trkpt>
      <trkpt lat="48.16122" lon="11.59494">
        <ele>521.095588</ele>
        <time>2021-08-12T18:13:13.000Z</time>
      </trkpt>
      <trkpt lat="48.16122" lon="11.59505">
        <ele>521.093546</ele>
        <time>2021-08-12T18:13:15.000Z</time>
      </trkpt>
      <trkpt lat="48.16118" lon="11.59518">
        <ele>521.09088</ele>
        <time>2021-08-12T18:13:17.000Z</time>
      </trkpt>
      <trkpt lat="48.16117" lon="11.59523">
        <ele>521.089742</ele>
        <time>2021-08-12T18:13:18.000Z</time>
      </trkpt>
      <trkpt lat="48.16107" lon="11.59554">
        <ele>521.08318</ele>
        <time>2021-08-12T18:13:24.000Z</time>
      </trkpt>
      <trkpt lat="48.16108" lon="11.59565">
        <ele>521.081036</ele>
        <time>2021-08-12T18:13:26.000Z</time>
      </trkpt>
      <trkpt lat="48.16109" lon="11.59585">
        <ele>521.077265</ele>
        <time>2021-08-12T18:13:30.000Z</time>
      </trkpt>
      <trkpt lat="48.16115" lon="11.59608">
        <ele>521.072449</ele>
        <time>2021-08-12T18:13:35.000Z</time>
      </trkpt>
      <trkpt lat="48.16127" lon="11.59618">
        <ele>521.068578</ele>
        <time>2021-08-12T18:13:39.000Z</time>
      </trkpt>
      <trkpt lat="48.16154" lon="11.59623">
        <ele>521.060678</ele>
        <time>2021-08-12T18:13:47.000Z</time>
      </trkpt>
      <trkpt lat="48.16176" lon="11.59635">
        <ele>521.048115</ele>
        <time>2021-08-12T18:13:53.000Z</time>
      </trkpt>
      <trkpt lat="48.16196" lon="11.5966">
        <ele>520.994132</ele>
        <time>2021-08-12T18:14:00.000Z</time>
      </trkpt>
      <trkpt lat="48.16208" lon="11.59672">
        <ele>520.965855</ele>
        <time>2021-08-12T18:14:05.000Z</time>
      </trkpt>
      <trkpt lat="48.16209" lon="11.59678">
        <ele>520.956163</ele>
        <time>2021-08-12T18:14:09.000Z</time>
      </trkpt>
      <trkpt lat="48.16209" lon="11.59679">
        <ele>520.954382</ele>
        <time>2021-08-12T18:14:10.000Z</time>
      </trkpt>
      <trkpt lat="48.1621" lon="11.59681">
        <ele>520.95149</ele>
        <time>2021-08-12T18:14:12.000Z</time>
      </trkpt>
      <trkpt lat="48.16211" lon="11.59681">
        <ele>520.948315</ele>
        <time>2021-08-12T18:14:13.000Z</time>
      </trkpt>
      <trkpt lat="48.16217" lon="11.59678">
        <ele>520.934341</ele>
        <time>2021-08-12T18:14:16.000Z</time>
      </trkpt>
      <trkpt lat="48.16224" lon="11.5968">
        <ele>520.920485</ele>
        <time>2021-08-12T18:14:18.000Z</time>
      </trkpt>
      <trkpt lat="48.16227" lon="11.59681">
        <ele>520.912971</ele>
        <time>2021-08-12T18:14:19.000Z</time>
      </trkpt>
      <trkpt lat="48.1623" lon="11.59682">
        <ele>520.907896</ele>
        <time>2021-08-12T18:14:20.000Z</time>
      </trkpt>
      <trkpt lat="48.16233" lon="11.59684">
        <ele>520.901355</ele>
        <time>2021-08-12T18:14:22.000Z</time>
      </trkpt>
      <trkpt lat="48.16233" lon="11.59687">
        <ele>520.897793</ele>
        <time>2021-08-12T18:14:23.000Z</time>
      </trkpt>
      <trkpt lat="48.16234" lon="11.5969">
        <ele>520.892474</ele>
        <time>2021-08-12T18:14:24.000Z</time>
      </trkpt>
      <trkpt lat="48.16233" lon="11.597">
        <ele>520.87952</ele>
        <time>2021-08-12T18:14:26.000Z</time>
      </trkpt>
      <trkpt lat="48.1623" lon="11.59709">
        <ele>520.864569</ele>
        <time>2021-08-12T18:14:28.000Z</time>
      </trkpt>
      <trkpt lat="48.16226" lon="11.59721">
        <ele>520.845916</ele>
        <time>2021-08-12T18:14:30.000Z</time>
      </trkpt>
      <trkpt lat="48.1622" lon="11.59735">
        <ele>520.823582</ele>
        <time>2021-08-12T18:14:32.000Z</time>
      </trkpt>
      <trkpt lat="48.16218" lon="11.5974">
        <ele>520.815369</ele>
        <time>2021-08-12T18:14:33.000Z</time>
      </trkpt>
      <trkpt lat="48.16212" lon="11.59751">
        <ele>520.796371</ele>
        <time>2021-08-12T18:14:36.000Z</time>
      </trkpt>
      <trkpt lat="48.16207" lon="11.59759">
        <ele>520.780354</ele>
        <time>2021-08-12T18:14:38.000Z</time>
      </trkpt>
      <trkpt lat="48.16196" lon="11.5978">
        <ele>520.743348</ele>
        <time>2021-08-12T18:14:44.000Z</time>
      </trkpt>
      <trkpt lat="48.16189" lon="11.59799">
        <ele>520.713177</ele>
        <time>2021-08-12T18:14:49.000Z</time>
      </trkpt>
      <trkpt lat="48.16185" lon="11.59809">
        <ele>520.69661</ele>
        <time>2021-08-12T18:14:51.000Z</time>
      </trkpt>
      <trkpt lat="48.16178" lon="11.59825">
        <ele>520.686419</ele>
        <time>2021-08-12T18:14:54.000Z</time>
      </trkpt>
      <trkpt lat="48.16162" lon="11.59853">
        <ele>520.720951</ele>
        <time>2021-08-12T18:15:00.000Z</time>
      </trkpt>
      <trkpt lat="48.16143" lon="11.59882">
        <ele>520.759228</ele>
        <time>2021-08-12T18:15:06.000Z</time>
      </trkpt>
      <trkpt lat="48.16137" lon="11.59892">
        <ele>520.771999</ele>
        <time>2021-08-12T18:15:08.000Z</time>
      </trkpt>
      <trkpt lat="48.16131" lon="11.59902">
        <ele>520.784464</ele>
        <time>2021-08-12T18:15:10.000Z</time>
      </trkpt>
      <trkpt lat="48.16127" lon="11.59912">
        <ele>520.795924</ele>
        <time>2021-08-12T18:15:12.000Z</time>
      </trkpt>
      <trkpt lat="48.16113" lon="11.59941">
        <ele>520.828354</ele>
        <time>2021-08-12T18:15:18.000Z</time>
      </trkpt>
      <trkpt lat="48.1611" lon="11.59946">
        <ele>520.83534</ele>
        <time>2021-08-12T18:15:19.000Z</time>
      </trkpt>
      <trkpt lat="48.16104" lon="11.59955">
        <ele>520.84726</ele>
        <time>2021-08-12T18:15:21.000Z</time>
      </trkpt>
      <trkpt lat="48.16101" lon="11.59958">
        <ele>520.852001</ele>
        <time>2021-08-12T18:15:22.000Z</time>
      </trkpt>
      <trkpt lat="48.16097" lon="11.59962">
        <ele>520.858806</ele>
        <time>2021-08-12T18:15:23.000Z</time>
      </trkpt>
      <trkpt lat="48.16092" lon="11.59967">
        <ele>520.867865</ele>
        <time>2021-08-12T18:15:25.000Z</time>
      </trkpt>
      <trkpt lat="48.16085" lon="11.5997">
        <ele>520.877584</ele>
        <time>2021-08-12T18:15:28.000Z</time>
      </trkpt>
      <trkpt lat="48.16081" lon="11.59968">
        <ele>520.883353</ele>
        <time>2021-08-12T18:15:29.000Z</time>
      </trkpt>
      <trkpt lat="48.16062" lon="11.59957">
        <ele>520.912186</ele>
        <time>2021-08-12T18:15:34.000Z</time>
      </trkpt>
      <trkpt lat="48.16057" lon="11.59955">
        <ele>520.918939</ele>
        <time>2021-08-12T18:15:35.000Z</time>
      </trkpt>
      <trkpt lat="48.16053" lon="11.59954">
        <ele>520.924435</ele>
        <time>2021-08-12T18:15:36.000Z</time>
      </trkpt>
      <trkpt lat="48.16047" lon="11.59951">
        <ele>520.933638</ele>
        <time>2021-08-12T18:15:38.000Z</time>
      </trkpt>
      <trkpt lat="48.16041" lon="11.59948">
        <ele>520.938427</ele>
        <time>2021-08-12T18:15:40.000Z</time>
      </trkpt>
      <trkpt lat="48.16038" lon="11.59945">
        <ele>520.940843</ele>
        <time>2021-08-12T18:15:41.000Z</time>
      </trkpt>
      <trkpt lat="48.16026" lon="11.59935">
        <ele>520.950817</ele>
        <time>2021-08-12T18:15:46.000Z</time>
      </trkpt>
      <trkpt lat="48.1601" lon="11.59929">
        <ele>520.963589</ele>
        <time>2021-08-12T18:15:51.000Z</time>
      </trkpt>
      <trkpt lat="48.15992" lon="11.59931">
        <ele>520.976678</ele>
        <time>2021-08-12T18:15:56.000Z</time>
      </trkpt>
      <trkpt lat="48.1598" lon="11.59939">
        <ele>520.986862</ele>
        <time>2021-08-12T18:16:00.000Z</time>
      </trkpt>
      <trkpt lat="48.15974" lon="11.59947">
        <ele>520.992545</ele>
        <time>2021-08-12T18:16:02.000Z</time>
      </trkpt>
      <trkpt lat="48.15961" lon="11.59972">
        <ele>521.008536</ele>
        <time>2021-08-12T18:16:08.000Z</time>
      </trkpt>
      <trkpt lat="48.1596" lon="11.60003">
        <ele>521.024083</ele>
        <time>2021-08-12T18:16:13.000Z</time>
      </trkpt>
      <trkpt lat="48.15962" lon="11.6003">
        <ele>521.037887</ele>
        <time>2021-08-12T18:16:18.000Z</time>
      </trkpt>
      <trkpt lat="48.1596" lon="11.60035">
        <ele>521.040549</ele>
        <time>2021-08-12T18:16:19.000Z</time>
      </trkpt>
      <trkpt lat="48.15959" lon="11.60058">
        <ele>521.051967</ele>
        <time>2021-08-12T18:16:23.000Z</time>
      </trkpt>
      <trkpt lat="48.1596" lon="11.60094">
        <ele>521.098248</ele>
        <time>2021-08-12T18:16:29.000Z</time>
      </trkpt>
      <trkpt lat="48.15954" lon="11.60121">
        <ele>521.239657</ele>
        <time>2021-08-12T18:16:34.000Z</time>
      </trkpt>
      <trkpt lat="48.15945" lon="11.60132">
        <ele>521.326783</ele>
        <time>2021-08-12T18:16:37.000Z</time>
      </trkpt>
      <trkpt lat="48.15938" lon="11.60137">
        <ele>521.386072</ele>
        <time>2021-08-12T18:16:39.000Z</time>
      </trkpt>
      <trkpt lat="48.15926" lon="11.60145">
        <ele>521.482607</ele>
        <time>2021-08-12T18:16:42.000Z</time>
      </trkpt>
      <trkpt lat="48.15918" lon="11.60151">
        <ele>521.552801</ele>
        <time>2021-08-12T18:16:44.000Z</time>
      </trkpt>
      <trkpt lat="48.1589" lon="11.60157">
        <ele>521.768138</ele>
        <time>2021-08-12T18:16:50.000Z</time>
      </trkpt>
      <trkpt lat="48.15876" lon="11.60156">
        <ele>521.86871</ele>
        <time>2021-08-12T18:16:53.000Z</time>
      </trkpt>
      <trkpt lat="48.15861" lon="11.60156">
        <ele>521.988971</ele>
        <time>2021-08-12T18:16:57.000Z</time>
      </trkpt>
      <trkpt lat="48.15854" lon="11.60161">
        <ele>522.044996</ele>
        <time>2021-08-12T18:16:59.000Z</time>
      </trkpt>
      <trkpt lat="48.15851" lon="11.60165">
        <ele>522.073551</ele>
        <time>2021-08-12T18:17:00.000Z</time>
      </trkpt>
      <trkpt lat="48.15848" lon="11.60169">
        <ele>522.107809</ele>
        <time>2021-08-12T18:17:01.000Z</time>
      </trkpt>
      <trkpt lat="48.15829" lon="11.60177">
        <ele>522.257714</ele>
        <time>2021-08-12T18:17:06.000Z</time>
      </trkpt>
      <trkpt lat="48.15824" lon="11.60179">
        <ele>522.291467</ele>
        <time>2021-08-12T18:17:07.000Z</time>
      </trkpt>
      <trkpt lat="48.15804" lon="11.60186">
        <ele>522.49823</ele>
        <time>2021-08-12T18:17:12.000Z</time>
      </trkpt>
      <trkpt lat="48.15784" lon="11.60189">
        <ele>522.970314</ele>
        <time>2021-08-12T18:17:17.000Z</time>
      </trkpt>
      <trkpt lat="48.15776" lon="11.6019">
        <ele>523.156259</ele>
        <time>2021-08-12T18:17:19.000Z</time>
      </trkpt>
      <trkpt lat="48.15768" lon="11.60192">
        <ele>523.338177</ele>
        <time>2021-08-12T18:17:21.000Z</time>
      </trkpt>
      <trkpt lat="48.15753" lon="11.60192">
        <ele>523.70407</ele>
        <time>2021-08-12T18:17:25.000Z</time>
      </trkpt>
      <trkpt lat="48.15745" lon="11.60193">
        <ele>523.892638</ele>
        <time>2021-08-12T18:17:27.000Z</time>
      </trkpt>
      <trkpt lat="48.15721" lon="11.60205">
        <ele>524.473192</ele>
        <time>2021-08-12T18:17:33.000Z</time>
      </trkpt>
      <trkpt lat="48.15718" lon="11.60208">
        <ele>524.552016</ele>
        <time>2021-08-12T18:17:34.000Z</time>
      </trkpt>
      <trkpt lat="48.157" lon="11.6023">
        <ele>525.101217</ele>
        <time>2021-08-12T18:17:41.000Z</time>
      </trkpt>
      <trkpt lat="48.15696" lon="11.60236">
        <ele>525.238375</ele>
        <time>2021-08-12T18:17:43.000Z</time>
      </trkpt>
      <trkpt lat="48.15688" lon="11.60247">
        <ele>525.484629</ele>
        <time>2021-08-12T18:17:46.000Z</time>
      </trkpt>
      <trkpt lat="48.15681" lon="11.60256">
        <ele>525.711112</ele>
        <time>2021-08-12T18:17:49.000Z</time>
      </trkpt>
      <trkpt lat="48.15677" lon="11.60262">
        <ele>525.833923</ele>
        <time>2021-08-12T18:17:51.000Z</time>
      </trkpt>
      <trkpt lat="48.1567" lon="11.60273">
        <ele>526.071306</ele>
        <time>2021-08-12T18:17:56.000Z</time>
      </trkpt>
      <trkpt lat="48.15668" lon="11.60277">
        <ele>526.161448</ele>
        <time>2021-08-12T18:17:58.000Z</time>
      </trkpt>
      <trkpt lat="48.15663" lon="11.60287">
        <ele>526.355473</ele>
        <time>2021-08-12T18:18:03.000Z</time>
      </trkpt>
      <trkpt lat="48.15663" lon="11.60288">
        <ele>526.363294</ele>
        <time>2021-08-12T18:18:07.000Z</time>
      </trkpt>
      <trkpt lat="48.15663" lon="11.60288">
        <ele>526.363294</ele>
        <time>2021-08-12T18:18:10.000Z</time>
      </trkpt>
      <trkpt lat="48.15663" lon="11.60288">
        <ele>526.363294</ele>
        <time>2021-08-12T18:18:16.000Z</time>
      </trkpt>
      <trkpt lat="48.15663" lon="11.60288">
        <ele>526.363294</ele>
        <time>2021-08-12T18:18:35.000Z</time>
      </trkpt>
      <trkpt lat="48.15663" lon="11.60288">
        <ele>526.363294</ele>
        <time>2021-08-12T18:18:38.000Z</time>
      </trkpt>
      <trkpt lat="48.15663" lon="11.60288">
        <ele>526.363294</ele>
        <time>2021-08-12T18:18:44.000Z</time>
      </trkpt>
      <trkpt lat="48.15663" lon="11.60288">
        <ele>526.366423</ele>
        <time>2021-08-12T18:18:46.000Z</time>
      </trkpt>
      <trkpt lat="48.15663" lon="11.6029">
        <ele>526.390924</ele>
        <time>2021-08-12T18:18:47.000Z</time>
      </trkpt>
      <trkpt lat="48.1566" lon="11.60297">
        <ele>526.523744</ele>
        <time>2021-08-12T18:18:50.000Z</time>
      </trkpt>
      <trkpt lat="48.15651" lon="11.60323">
        <ele>526.545745</ele>
        <time>2021-08-12T18:18:57.000Z</time>
      </trkpt>
      <trkpt lat="48.15648" lon="11.60338">
        <ele>526.476896</ele>
        <time>2021-08-12T18:19:01.000Z</time>
      </trkpt>
      <trkpt lat="48.15647" lon="11.60351">
        <ele>526.416864</ele>
        <time>2021-08-12T18:19:04.000Z</time>
      </trkpt>
      <trkpt lat="48.15649" lon="11.60358">
        <ele>526.378862</ele>
        <time>2021-08-12T18:19:06.000Z</time>
      </trkpt>
      <trkpt lat="48.15655" lon="11.6037">
        <ele>526.311056</ele>
        <time>2021-08-12T18:19:09.000Z</time>
      </trkpt>
      <trkpt lat="48.15668" lon="11.60383">
        <ele>526.203739</ele>
        <time>2021-08-12T18:19:13.000Z</time>
      </trkpt>
      <trkpt lat="48.15672" lon="11.60386">
        <ele>526.173666</ele>
        <time>2021-08-12T18:19:14.000Z</time>
      </trkpt>
      <trkpt lat="48.15675" lon="11.6039">
        <ele>526.144308</ele>
        <time>2021-08-12T18:19:15.000Z</time>
      </trkpt>
      <trkpt lat="48.15694" lon="11.60407">
        <ele>525.991509</ele>
        <time>2021-08-12T18:19:20.000Z</time>
      </trkpt>
      <trkpt lat="48.15698" lon="11.60411">
        <ele>525.958379</ele>
        <time>2021-08-12T18:19:21.000Z</time>
      </trkpt>
      <trkpt lat="48.15704" lon="11.60421">
        <ele>525.894522</ele>
        <time>2021-08-12T18:19:23.000Z</time>
      </trkpt>
      <trkpt lat="48.15707" lon="11.60431">
        <ele>525.844755</ele>
        <time>2021-08-12T18:19:25.000Z</time>
      </trkpt>
      <trkpt lat="48.15706" lon="11.60442">
        <ele>525.795721</ele>
        <time>2021-08-12T18:19:27.000Z</time>
      </trkpt>
      <trkpt lat="48.15703" lon="11.60452">
        <ele>525.742987</ele>
        <time>2021-08-12T18:19:29.000Z</time>
      </trkpt>
      <trkpt lat="48.15688" lon="11.60491">
        <ele>525.537371</ele>
        <time>2021-08-12T18:19:36.000Z</time>
      </trkpt>
      <trkpt lat="48.15674" lon="11.60527">
        <ele>525.443458</ele>
        <time>2021-08-12T18:19:42.000Z</time>
      </trkpt>
      <trkpt lat="48.15663" lon="11.60552">
        <ele>525.53317</ele>
        <time>2021-08-12T18:19:46.000Z</time>
      </trkpt>
      <trkpt lat="48.15661" lon="11.60558">
        <ele>525.555586</ele>
        <time>2021-08-12T18:19:47.000Z</time>
      </trkpt>
      <trkpt lat="48.15656" lon="11.6057">
        <ele>525.599432</ele>
        <time>2021-08-12T18:19:49.000Z</time>
      </trkpt>
      <trkpt lat="48.15648" lon="11.6059">
        <ele>525.667316</ele>
        <time>2021-08-12T18:19:52.000Z</time>
      </trkpt>
      <trkpt lat="48.15633" lon="11.60626">
        <ele>525.797825</ele>
        <time>2021-08-12T18:19:58.000Z</time>
      </trkpt>
      <trkpt lat="48.15625" lon="11.60644">
        <ele>525.862831</ele>
        <time>2021-08-12T18:20:01.000Z</time>
      </trkpt>
      <trkpt lat="48.15619" lon="11.60655">
        <ele>525.905512</ele>
        <time>2021-08-12T18:20:03.000Z</time>
      </trkpt>
      <trkpt lat="48.15616" lon="11.6066">
        <ele>525.92649</ele>
        <time>2021-08-12T18:20:04.000Z</time>
      </trkpt>
      <trkpt lat="48.1561" lon="11.6067">
        <ele>525.965495</ele>
        <time>2021-08-12T18:20:06.000Z</time>
      </trkpt>
      <trkpt lat="48.15606" lon="11.60681">
        <ele>526.004029</ele>
        <time>2021-08-12T18:20:08.000Z</time>
      </trkpt>
      <trkpt lat="48.156" lon="11.60693">
        <ele>526.048132</ele>
        <time>2021-08-12T18:20:10.000Z</time>
      </trkpt>
      <trkpt lat="48.15588" lon="11.60728">
        <ele>526.16838</ele>
        <time>2021-08-12T18:20:16.000Z</time>
      </trkpt>
      <trkpt lat="48.15585" lon="11.60742">
        <ele>526.212899</ele>
        <time>2021-08-12T18:20:18.000Z</time>
      </trkpt>
      <trkpt lat="48.1558" lon="11.60756">
        <ele>526.245184</ele>
        <time>2021-08-12T18:20:20.000Z</time>
      </trkpt>
      <trkpt lat="48.1557" lon="11.60783">
        <ele>526.303964</ele>
        <time>2021-08-12T18:20:24.000Z</time>
      </trkpt>
      <trkpt lat="48.15547" lon="11.6084">
        <ele>526.427413</ele>
        <time>2021-08-12T18:20:32.000Z</time>
      </trkpt>
      <trkpt lat="48.15528" lon="11.60886">
        <ele>526.528485</ele>
        <time>2021-08-12T18:20:39.000Z</time>
      </trkpt>
      <trkpt lat="48.15522" lon="11.60901">
        <ele>526.560091</ele>
        <time>2021-08-12T18:20:41.000Z</time>
      </trkpt>
      <trkpt lat="48.15514" lon="11.6092">
        <ele>526.603181</ele>
        <time>2021-08-12T18:20:44.000Z</time>
      </trkpt>
      <trkpt lat="48.15501" lon="11.60951">
        <ele>526.671214</ele>
        <time>2021-08-12T18:20:49.000Z</time>
      </trkpt>
      <trkpt lat="48.15489" lon="11.60978">
        <ele>526.773487</ele>
        <time>2021-08-12T18:20:53.000Z</time>
      </trkpt>
      <trkpt lat="48.15478" lon="11.61005">
        <ele>527.109778</ele>
        <time>2021-08-12T18:20:57.000Z</time>
      </trkpt>
      <trkpt lat="48.15458" lon="11.61053">
        <ele>527.731473</ele>
        <time>2021-08-12T18:21:05.000Z</time>
      </trkpt>
      <trkpt lat="48.15452" lon="11.61066">
        <ele>527.909057</ele>
        <time>2021-08-12T18:21:07.000Z</time>
      </trkpt>
      <trkpt lat="48.15422" lon="11.61131">
        <ele>528.764538</ele>
        <time>2021-08-12T18:21:17.000Z</time>
      </trkpt>
      <trkpt lat="48.15402" lon="11.61167">
        <ele>529.275619</ele>
        <time>2021-08-12T18:21:23.000Z</time>
      </trkpt>
      <trkpt lat="48.15399" lon="11.61172">
        <ele>529.349251</ele>
        <time>2021-08-12T18:21:24.000Z</time>
      </trkpt>
      <trkpt lat="48.15385" lon="11.61196">
        <ele>529.717282</ele>
        <time>2021-08-12T18:21:29.000Z</time>
      </trkpt>
      <trkpt lat="48.15382" lon="11.61199">
        <ele>529.830831</ele>
        <time>2021-08-12T18:21:30.000Z</time>
      </trkpt>
      <trkpt lat="48.15373" lon="11.6122">
        <ele>530.322572</ele>
        <time>2021-08-12T18:21:35.000Z</time>
      </trkpt>
      <trkpt lat="48.1537" lon="11.61227">
        <ele>530.518687</ele>
        <time>2021-08-12T18:21:37.000Z</time>
      </trkpt>
      <trkpt lat="48.15359" lon="11.61247">
        <ele>531.030357</ele>
        <time>2021-08-12T18:21:42.000Z</time>
      </trkpt>
      <trkpt lat="48.15356" lon="11.61255">
        <ele>531.232837</ele>
        <time>2021-08-12T18:21:44.000Z</time>
      </trkpt>
      <trkpt lat="48.15353" lon="11.61268">
        <ele>531.508729</ele>
        <time>2021-08-12T18:21:47.000Z</time>
      </trkpt>
      <trkpt lat="48.15352" lon="11.61272">
        <ele>531.595635</ele>
        <time>2021-08-12T18:21:48.000Z</time>
      </trkpt>
      <trkpt lat="48.1535" lon="11.61275">
        <ele>531.68348</ele>
        <time>2021-08-12T18:21:49.000Z</time>
      </trkpt>
      <trkpt lat="48.15351" lon="11.6128">
        <ele>531.769605</ele>
        <time>2021-08-12T18:21:50.000Z</time>
      </trkpt>
      <trkpt lat="48.15349" lon="11.61283">
        <ele>531.841067</ele>
        <time>2021-08-12T18:21:51.000Z</time>
      </trkpt>
      <trkpt lat="48.15343" lon="11.61294">
        <ele>532.146401</ele>
        <time>2021-08-12T18:21:55.000Z</time>
      </trkpt>
      <trkpt lat="48.15339" lon="11.61302">
        <ele>532.33555</ele>
        <time>2021-08-12T18:21:58.000Z</time>
      </trkpt>
      <trkpt lat="48.15338" lon="11.61305">
        <ele>532.416568</ele>
        <time>2021-08-12T18:21:59.000Z</time>
      </trkpt>
      <trkpt lat="48.15329" lon="11.61316">
        <ele>532.773165</ele>
        <time>2021-08-12T18:22:03.000Z</time>
      </trkpt>
      <trkpt lat="48.15314" lon="11.61335">
        <ele>533.367656</ele>
        <time>2021-08-12T18:22:10.000Z</time>
      </trkpt>
      <trkpt lat="48.15311" lon="11.61338">
        <ele>533.478445</ele>
        <time>2021-08-12T18:22:11.000Z</time>
      </trkpt>
      <trkpt lat="48.15296" lon="11.61355">
        <ele>534.056441</ele>
        <time>2021-08-12T18:22:17.000Z</time>
      </trkpt>
      <trkpt lat="48.15288" lon="11.61363">
        <ele>534.360946</ele>
        <time>2021-08-12T18:22:20.000Z</time>
      </trkpt>
      <trkpt lat="48.15277" lon="11.61374">
        <ele>534.756441</ele>
        <time>2021-08-12T18:22:24.000Z</time>
      </trkpt>
      <trkpt lat="48.15276" lon="11.61375">
        <ele>534.790738</ele>
        <time>2021-08-12T18:22:28.000Z</time>
      </trkpt>
      <trkpt lat="48.15276" lon="11.61375">
        <ele>534.790738</ele>
        <time>2021-08-12T18:22:33.000Z</time>
      </trkpt>
      <trkpt lat="48.15276" lon="11.61375">
        <ele>534.790738</ele>
        <time>2021-08-12T18:22:39.000Z</time>
      </trkpt>
      <trkpt lat="48.15276" lon="11.61375">
        <ele>534.790738</ele>
        <time>2021-08-12T18:22:40.000Z</time>
      </trkpt>
      <trkpt lat="48.15276" lon="11.61375">
        <ele>534.790738</ele>
        <time>2021-08-12T18:22:41.000Z</time>
      </trkpt>
      <trkpt lat="48.15276" lon="11.61375">
        <ele>534.790738</ele>
        <time>2021-08-12T18:22:43.000Z</time>
      </trkpt>
      <trkpt lat="48.15276" lon="11.61375">
        <ele>534.790738</ele>
        <time>2021-08-12T18:22:47.000Z</time>
      </trkpt>
      <trkpt lat="48.15276" lon="11.61375">
        <ele>534.790738</ele>
        <time>2021-08-12T18:22:59.000Z</time>
      </trkpt>
      <trkpt lat="48.15276" lon="11.61375">
        <ele>534.790738</ele>
        <time>2021-08-12T18:23:02.000Z</time>
      </trkpt>
      <trkpt lat="48.15276" lon="11.61375">
        <ele>534.790738</ele>
        <time>2021-08-12T18:23:05.000Z</time>
      </trkpt>
      <trkpt lat="48.15276" lon="11.61375">
        <ele>534.790738</ele>
        <time>2021-08-12T18:23:09.000Z</time>
      </trkpt>
      <trkpt lat="48.15276" lon="11.61375">
        <ele>534.790738</ele>
        <time>2021-08-12T18:23:14.000Z</time>
      </trkpt>
      <trkpt lat="48.15276" lon="11.61375">
        <ele>534.790738</ele>
        <time>2021-08-12T18:23:19.000Z</time>
      </trkpt>
      <trkpt lat="48.15276" lon="11.61375">
        <ele>534.790738</ele>
        <time>2021-08-12T18:23:25.000Z</time>
      </trkpt>
      <trkpt lat="48.15276" lon="11.61375">
        <ele>534.790738</ele>
        <time>2021-08-12T18:23:29.000Z</time>
      </trkpt>
      <trkpt lat="48.15277" lon="11.61379">
        <ele>534.868616</ele>
        <time>2021-08-12T18:23:31.000Z</time>
      </trkpt>
      <trkpt lat="48.15279" lon="11.61383">
        <ele>534.958324</ele>
        <time>2021-08-12T18:23:32.000Z</time>
      </trkpt>
      <trkpt lat="48.1528" lon="11.61387">
        <ele>535.051175</ele>
        <time>2021-08-12T18:23:33.000Z</time>
      </trkpt>
      <trkpt lat="48.15287" lon="11.61405">
        <ele>535.132468</ele>
        <time>2021-08-12T18:23:39.000Z</time>
      </trkpt>
      <trkpt lat="48.1529" lon="11.61416">
        <ele>535.099328</ele>
        <time>2021-08-12T18:23:44.000Z</time>
      </trkpt>
      <trkpt lat="48.15305" lon="11.6143">
        <ele>535.027822</ele>
        <time>2021-08-12T18:23:49.000Z</time>
      </trkpt>
      <trkpt lat="48.15321" lon="11.61456">
        <ele>534.929618</ele>
        <time>2021-08-12T18:23:55.000Z</time>
      </trkpt>
      <trkpt lat="48.15347" lon="11.61489">
        <ele>534.786506</ele>
        <time>2021-08-12T18:24:03.000Z</time>
      </trkpt>
      <trkpt lat="48.15356" lon="11.61501">
        <ele>534.73614</ele>
        <time>2021-08-12T18:24:06.000Z</time>
      </trkpt>
      <trkpt lat="48.15369" lon="11.61514">
        <ele>534.670512</ele>
        <time>2021-08-12T18:24:10.000Z</time>
      </trkpt>
      <trkpt lat="48.15388" lon="11.61532">
        <ele>534.580458</ele>
        <time>2021-08-12T18:24:15.000Z</time>
      </trkpt>
      <trkpt lat="48.15403" lon="11.61544">
        <ele>534.506712</ele>
        <time>2021-08-12T18:24:19.000Z</time>
      </trkpt>
      <trkpt lat="48.15409" lon="11.6155">
        <ele>534.476312</ele>
        <time>2021-08-12T18:24:21.000Z</time>
      </trkpt>
      <trkpt lat="48.1542" lon="11.61565">
        <ele>534.416313</ele>
        <time>2021-08-12T18:24:25.000Z</time>
      </trkpt>
      <trkpt lat="48.15448" lon="11.61595">
        <ele>534.283966</ele>
        <time>2021-08-12T18:24:34.000Z</time>
      </trkpt>
      <trkpt lat="48.15476" lon="11.61622">
        <ele>534.154534</ele>
        <time>2021-08-12T18:24:42.000Z</time>
      </trkpt>
      <trkpt lat="48.15484" lon="11.61629">
        <ele>534.119207</ele>
        <time>2021-08-12T18:24:44.000Z</time>
      </trkpt>
      <trkpt lat="48.15503" lon="11.61645">
        <ele>534.033894</ele>
        <time>2021-08-12T18:24:49.000Z</time>
      </trkpt>
      <trkpt lat="48.1551" lon="11.61652">
        <ele>534.000428</ele>
        <time>2021-08-12T18:24:51.000Z</time>
      </trkpt>
      <trkpt lat="48.15513" lon="11.61655">
        <ele>533.986258</ele>
        <time>2021-08-12T18:24:52.000Z</time>
      </trkpt>
      <trkpt lat="48.15532" lon="11.61673">
        <ele>533.899646</ele>
        <time>2021-08-12T18:24:57.000Z</time>
      </trkpt>
      <trkpt lat="48.1554" lon="11.61679">
        <ele>533.865121</ele>
        <time>2021-08-12T18:24:59.000Z</time>
      </trkpt>
      <trkpt lat="48.15576" lon="11.61712">
        <ele>533.702065</ele>
        <time>2021-08-12T18:25:08.000Z</time>
      </trkpt>
      <trkpt lat="48.15614" lon="11.61749">
        <ele>533.517468</ele>
        <time>2021-08-12T18:25:18.000Z</time>
      </trkpt>
      <trkpt lat="48.15647" lon="11.61781">
        <ele>533.361419</ele>
        <time>2021-08-12T18:25:27.000Z</time>
      </trkpt>
      <trkpt lat="48.15654" lon="11.61787">
        <ele>533.329528</ele>
        <time>2021-08-12T18:25:29.000Z</time>
      </trkpt>
      <trkpt lat="48.15679" lon="11.61811">
        <ele>533.209925</ele>
        <time>2021-08-12T18:25:37.000Z</time>
      </trkpt>
      <trkpt lat="48.15686" lon="11.61818">
        <ele>533.176988</ele>
        <time>2021-08-12T18:25:38.000Z</time>
      </trkpt>
      <trkpt lat="48.15711" lon="11.61842">
        <ele>533.056514</ele>
        <time>2021-08-12T18:25:45.000Z</time>
      </trkpt>
      <trkpt lat="48.15715" lon="11.61845">
        <ele>533.038794</ele>
        <time>2021-08-12T18:25:46.000Z</time>
      </trkpt>
      <trkpt lat="48.1573" lon="11.61857">
        <ele>532.969349</ele>
        <time>2021-08-12T18:25:50.000Z</time>
      </trkpt>
      <trkpt lat="48.15738" lon="11.61864">
        <ele>532.933582</ele>
        <time>2021-08-12T18:25:52.000Z</time>
      </trkpt>
      <trkpt lat="48.15746" lon="11.61872">
        <ele>532.898949</ele>
        <time>2021-08-12T18:25:54.000Z</time>
      </trkpt>
      <trkpt lat="48.15753" lon="11.6188">
        <ele>532.862963</ele>
        <time>2021-08-12T18:25:56.000Z</time>
      </trkpt>
      <trkpt lat="48.15773" lon="11.61897">
        <ele>532.773741</ele>
        <time>2021-08-12T18:26:01.000Z</time>
      </trkpt>
      <trkpt lat="48.15793" lon="11.61914">
        <ele>532.682366</ele>
        <time>2021-08-12T18:26:06.000Z</time>
      </trkpt>
      <trkpt lat="48.15801" lon="11.61921">
        <ele>532.646472</ele>
        <time>2021-08-12T18:26:08.000Z</time>
      </trkpt>
      <trkpt lat="48.15809" lon="11.6193">
        <ele>532.607046</ele>
        <time>2021-08-12T18:26:10.000Z</time>
      </trkpt>
      <trkpt lat="48.15824" lon="11.61944">
        <ele>532.538063</ele>
        <time>2021-08-12T18:26:14.000Z</time>
      </trkpt>
      <trkpt lat="48.15839" lon="11.6196">
        <ele>532.466429</ele>
        <time>2021-08-12T18:26:19.000Z</time>
      </trkpt>
      <trkpt lat="48.15862" lon="11.61983">
        <ele>532.358035</ele>
        <time>2021-08-12T18:26:24.000Z</time>
      </trkpt>
      <trkpt lat="48.15869" lon="11.6199">
        <ele>532.324674</ele>
        <time>2021-08-12T18:26:26.000Z</time>
      </trkpt>
      <trkpt lat="48.15883" lon="11.62004">
        <ele>532.300095</ele>
        <time>2021-08-12T18:26:30.000Z</time>
      </trkpt>
      <trkpt lat="48.15892" lon="11.62013">
        <ele>532.300095</ele>
        <time>2021-08-12T18:26:32.000Z</time>
      </trkpt>
      <trkpt lat="48.15914" lon="11.62033">
        <ele>532.300095</ele>
        <time>2021-08-12T18:26:38.000Z</time>
      </trkpt>
      <trkpt lat="48.1593" lon="11.62046">
        <ele>532.300095</ele>
        <time>2021-08-12T18:26:42.000Z</time>
      </trkpt>
      <trkpt lat="48.15945" lon="11.62057">
        <ele>532.300095</ele>
        <time>2021-08-12T18:26:46.000Z</time>
      </trkpt>
      <trkpt lat="48.1596" lon="11.62069">
        <ele>532.300095</ele>
        <time>2021-08-12T18:26:51.000Z</time>
      </trkpt>
      <trkpt lat="48.1596" lon="11.62069">
        <ele>532.300095</ele>
        <time>2021-08-12T18:26:52.000Z</time>
      </trkpt>
      <trkpt lat="48.15967" lon="11.62065">
        <ele>532.300095</ele>
        <time>2021-08-12T18:26:53.000Z</time>
      </trkpt>
      <trkpt lat="48.15971" lon="11.62057">
        <ele>532.300095</ele>
        <time>2021-08-12T18:26:55.000Z</time>
      </trkpt>
      <trkpt lat="48.15971" lon="11.62028">
        <ele>532.300095</ele>
        <time>2021-08-12T18:27:01.000Z</time>
      </trkpt>
      <trkpt lat="48.15973" lon="11.61993">
        <ele>532.300095</ele>
        <time>2021-08-12T18:27:08.000Z</time>
      </trkpt>
      <trkpt lat="48.15977" lon="11.61959">
        <ele>532.300095</ele>
        <time>2021-08-12T18:27:16.000Z</time>
      </trkpt>
      <trkpt lat="48.15975" lon="11.61949">
        <ele>532.300095</ele>
        <time>2021-08-12T18:27:20.000Z</time>
      </trkpt>
    </trkseg>
  </trk>
</gpx>